<?xml version="1.0" encoding="UTF-8" standalone="no" ?>
<gpx xmlns="http://www.topografix.com/GPX/1/1" xmlns:xsi="http://www.w3.org/2001/XMLSchema-instance" xsi:schemaLocation="http://www.topografix.com/GPX/1/1 http://www.topografix.com/GPX/1/1/gpx.xsd" version="1.1" creator="VisuGPX - https://www.visugpx.com">
  <metadata>
    <name>Sentier de la Baie d'Authie</name>
  </metadata>
  <trk>
    <name><![CDATA[Sentier de la Baie d'Authie_1]]></name>
    <trkseg>
      <trkpt lat="50.39885" lon="1.56872">
        <ele>6.4</ele>
        <time>2019-10-06T12:56:17Z</time>
      </trkpt>
      <trkpt lat="50.39889" lon="1.56857">
        <ele>2.5</ele>
        <time>2019-10-06T12:56:34Z</time>
      </trkpt>
      <trkpt lat="50.39887" lon="1.5685">
        <ele>2.5</ele>
        <time>2019-10-06T12:56:55Z</time>
      </trkpt>
      <trkpt lat="50.39883" lon="1.56839">
        <ele>2.5</ele>
        <time>2019-10-06T12:57:03Z</time>
      </trkpt>
      <trkpt lat="50.39878" lon="1.56825">
        <ele>2.5</ele>
        <time>2019-10-06T12:57:14Z</time>
      </trkpt>
      <trkpt lat="50.39875" lon="1.56819">
        <ele>2.5</ele>
        <time>2019-10-06T12:57:16Z</time>
      </trkpt>
      <trkpt lat="50.39872" lon="1.56811">
        <ele>2.5</ele>
        <time>2019-10-06T12:57:20Z</time>
      </trkpt>
      <trkpt lat="50.39869" lon="1.56805">
        <ele>2.5</ele>
        <time>2019-10-06T12:57:25Z</time>
      </trkpt>
      <trkpt lat="50.39865" lon="1.568">
        <ele>2.5</ele>
        <time>2019-10-06T12:57:30Z</time>
      </trkpt>
      <trkpt lat="50.3986" lon="1.56795">
        <ele>2.5</ele>
        <time>2019-10-06T12:57:35Z</time>
      </trkpt>
      <trkpt lat="50.39856" lon="1.56791">
        <ele>2.5</ele>
        <time>2019-10-06T12:57:39Z</time>
      </trkpt>
      <trkpt lat="50.39853" lon="1.56785">
        <ele>2.5</ele>
        <time>2019-10-06T12:57:42Z</time>
      </trkpt>
      <trkpt lat="50.3985" lon="1.56778">
        <ele>2.5</ele>
        <time>2019-10-06T12:57:47Z</time>
      </trkpt>
      <trkpt lat="50.39847" lon="1.5677">
        <ele>2.5</ele>
        <time>2019-10-06T12:57:51Z</time>
      </trkpt>
      <trkpt lat="50.39845" lon="1.56762">
        <ele>2.5</ele>
        <time>2019-10-06T12:57:57Z</time>
      </trkpt>
      <trkpt lat="50.39842" lon="1.56755">
        <ele>2.5</ele>
        <time>2019-10-06T12:58:02Z</time>
      </trkpt>
      <trkpt lat="50.3984" lon="1.56746">
        <ele>2.5</ele>
        <time>2019-10-06T12:58:06Z</time>
      </trkpt>
      <trkpt lat="50.39839" lon="1.5674">
        <ele>2.5</ele>
        <time>2019-10-06T12:58:10Z</time>
      </trkpt>
      <trkpt lat="50.39837" lon="1.56732">
        <ele>2.5</ele>
        <time>2019-10-06T12:58:15Z</time>
      </trkpt>
      <trkpt lat="50.39835" lon="1.56725">
        <ele>2.5</ele>
        <time>2019-10-06T12:58:19Z</time>
      </trkpt>
      <trkpt lat="50.39833" lon="1.56719">
        <ele>2.5</ele>
        <time>2019-10-06T12:58:24Z</time>
      </trkpt>
      <trkpt lat="50.3983" lon="1.56712">
        <ele>2.5</ele>
        <time>2019-10-06T12:58:28Z</time>
      </trkpt>
      <trkpt lat="50.39827" lon="1.56706">
        <ele>2.5</ele>
        <time>2019-10-06T12:58:32Z</time>
      </trkpt>
      <trkpt lat="50.39824" lon="1.56698">
        <ele>2.5</ele>
        <time>2019-10-06T12:58:36Z</time>
      </trkpt>
      <trkpt lat="50.39821" lon="1.56692">
        <ele>2.5</ele>
        <time>2019-10-06T12:58:40Z</time>
      </trkpt>
      <trkpt lat="50.39818" lon="1.56685">
        <ele>2.5</ele>
        <time>2019-10-06T12:58:45Z</time>
      </trkpt>
      <trkpt lat="50.39814" lon="1.56679">
        <ele>2.5</ele>
        <time>2019-10-06T12:58:50Z</time>
      </trkpt>
      <trkpt lat="50.39812" lon="1.56672">
        <ele>2.5</ele>
        <time>2019-10-06T12:58:56Z</time>
      </trkpt>
      <trkpt lat="50.3981" lon="1.56665">
        <ele>2.5</ele>
        <time>2019-10-06T12:59:03Z</time>
      </trkpt>
      <trkpt lat="50.39807" lon="1.56658">
        <ele>2.5</ele>
        <time>2019-10-06T12:59:08Z</time>
      </trkpt>
      <trkpt lat="50.39804" lon="1.56652">
        <ele>2.5</ele>
        <time>2019-10-06T12:59:12Z</time>
      </trkpt>
      <trkpt lat="50.39801" lon="1.56645">
        <ele>2.5</ele>
        <time>2019-10-06T12:59:17Z</time>
      </trkpt>
      <trkpt lat="50.39798" lon="1.56637">
        <ele>2.5</ele>
        <time>2019-10-06T12:59:22Z</time>
      </trkpt>
      <trkpt lat="50.39796" lon="1.56629">
        <ele>2.5</ele>
        <time>2019-10-06T12:59:26Z</time>
      </trkpt>
      <trkpt lat="50.39794" lon="1.56622">
        <ele>2.5</ele>
        <time>2019-10-06T12:59:31Z</time>
      </trkpt>
      <trkpt lat="50.39791" lon="1.56614">
        <ele>2.5</ele>
        <time>2019-10-06T12:59:35Z</time>
      </trkpt>
      <trkpt lat="50.39788" lon="1.56608">
        <ele>2.5</ele>
        <time>2019-10-06T12:59:40Z</time>
      </trkpt>
      <trkpt lat="50.39785" lon="1.56601">
        <ele>2.5</ele>
        <time>2019-10-06T12:59:44Z</time>
      </trkpt>
      <trkpt lat="50.39782" lon="1.56594">
        <ele>2.5</ele>
        <time>2019-10-06T12:59:48Z</time>
      </trkpt>
      <trkpt lat="50.3978" lon="1.56586">
        <ele>2.5</ele>
        <time>2019-10-06T12:59:52Z</time>
      </trkpt>
      <trkpt lat="50.39778" lon="1.5658">
        <ele>2.5</ele>
        <time>2019-10-06T12:59:56Z</time>
      </trkpt>
      <trkpt lat="50.39775" lon="1.56574">
        <ele>2.5</ele>
        <time>2019-10-06T13:00:01Z</time>
      </trkpt>
      <trkpt lat="50.39771" lon="1.56567">
        <ele>2.5</ele>
        <time>2019-10-06T13:00:06Z</time>
      </trkpt>
      <trkpt lat="50.39769" lon="1.5656">
        <ele>2.5</ele>
        <time>2019-10-06T13:00:10Z</time>
      </trkpt>
      <trkpt lat="50.39766" lon="1.56554">
        <ele>2.5</ele>
        <time>2019-10-06T13:00:14Z</time>
      </trkpt>
      <trkpt lat="50.39763" lon="1.56548">
        <ele>2.5</ele>
        <time>2019-10-06T13:00:18Z</time>
      </trkpt>
      <trkpt lat="50.39761" lon="1.56541">
        <ele>2.5</ele>
        <time>2019-10-06T13:00:22Z</time>
      </trkpt>
      <trkpt lat="50.39759" lon="1.56532">
        <ele>2.5</ele>
        <time>2019-10-06T13:00:27Z</time>
      </trkpt>
      <trkpt lat="50.39756" lon="1.56524">
        <ele>2.5</ele>
        <time>2019-10-06T13:00:31Z</time>
      </trkpt>
      <trkpt lat="50.39753" lon="1.56519">
        <ele>2.5</ele>
        <time>2019-10-06T13:00:34Z</time>
      </trkpt>
      <trkpt lat="50.3975" lon="1.56513">
        <ele>2.5</ele>
        <time>2019-10-06T13:00:38Z</time>
      </trkpt>
      <trkpt lat="50.39747" lon="1.56506">
        <ele>2.5</ele>
        <time>2019-10-06T13:00:43Z</time>
      </trkpt>
      <trkpt lat="50.39745" lon="1.56499">
        <ele>2.5</ele>
        <time>2019-10-06T13:00:47Z</time>
      </trkpt>
      <trkpt lat="50.39743" lon="1.56492">
        <ele>2.5</ele>
        <time>2019-10-06T13:00:51Z</time>
      </trkpt>
      <trkpt lat="50.39739" lon="1.56484">
        <ele>2.5</ele>
        <time>2019-10-06T13:00:55Z</time>
      </trkpt>
      <trkpt lat="50.39737" lon="1.56477">
        <ele>2.5</ele>
        <time>2019-10-06T13:00:58Z</time>
      </trkpt>
      <trkpt lat="50.39734" lon="1.56471">
        <ele>2.5</ele>
        <time>2019-10-06T13:01:02Z</time>
      </trkpt>
      <trkpt lat="50.3973" lon="1.56465">
        <ele>2.5</ele>
        <time>2019-10-06T13:01:06Z</time>
      </trkpt>
      <trkpt lat="50.39726" lon="1.5646">
        <ele>2.5</ele>
        <time>2019-10-06T13:01:11Z</time>
      </trkpt>
      <trkpt lat="50.39722" lon="1.56456">
        <ele>2.5</ele>
        <time>2019-10-06T13:01:15Z</time>
      </trkpt>
      <trkpt lat="50.39718" lon="1.56451">
        <ele>2.5</ele>
        <time>2019-10-06T13:01:19Z</time>
      </trkpt>
      <trkpt lat="50.39713" lon="1.56447">
        <ele>2.5</ele>
        <time>2019-10-06T13:01:23Z</time>
      </trkpt>
      <trkpt lat="50.39709" lon="1.56442">
        <ele>2.5</ele>
        <time>2019-10-06T13:01:28Z</time>
      </trkpt>
      <trkpt lat="50.39704" lon="1.56439">
        <ele>2.5</ele>
        <time>2019-10-06T13:01:33Z</time>
      </trkpt>
      <trkpt lat="50.39699" lon="1.56436">
        <ele>2.5</ele>
        <time>2019-10-06T13:01:37Z</time>
      </trkpt>
      <trkpt lat="50.39695" lon="1.56433">
        <ele>2.5</ele>
        <time>2019-10-06T13:01:41Z</time>
      </trkpt>
      <trkpt lat="50.39691" lon="1.56429">
        <ele>2.5</ele>
        <time>2019-10-06T13:01:45Z</time>
      </trkpt>
      <trkpt lat="50.39687" lon="1.56424">
        <ele>2.5</ele>
        <time>2019-10-06T13:01:49Z</time>
      </trkpt>
      <trkpt lat="50.39683" lon="1.56418">
        <ele>2.5</ele>
        <time>2019-10-06T13:01:54Z</time>
      </trkpt>
      <trkpt lat="50.3968" lon="1.56412">
        <ele>2.5</ele>
        <time>2019-10-06T13:01:58Z</time>
      </trkpt>
      <trkpt lat="50.39676" lon="1.56408">
        <ele>2.5</ele>
        <time>2019-10-06T13:02:02Z</time>
      </trkpt>
      <trkpt lat="50.39673" lon="1.56403">
        <ele>2.5</ele>
        <time>2019-10-06T13:02:06Z</time>
      </trkpt>
      <trkpt lat="50.39669" lon="1.56396">
        <ele>2.5</ele>
        <time>2019-10-06T13:02:11Z</time>
      </trkpt>
      <trkpt lat="50.39666" lon="1.56391">
        <ele>2.5</ele>
        <time>2019-10-06T13:02:15Z</time>
      </trkpt>
      <trkpt lat="50.39662" lon="1.56386">
        <ele>2.5</ele>
        <time>2019-10-06T13:02:19Z</time>
      </trkpt>
      <trkpt lat="50.39659" lon="1.5638">
        <ele>2.5</ele>
        <time>2019-10-06T13:02:23Z</time>
      </trkpt>
      <trkpt lat="50.39656" lon="1.56374">
        <ele>2.5</ele>
        <time>2019-10-06T13:02:29Z</time>
      </trkpt>
      <trkpt lat="50.39653" lon="1.56368">
        <ele>2.5</ele>
        <time>2019-10-06T13:02:33Z</time>
      </trkpt>
      <trkpt lat="50.3965" lon="1.56361">
        <ele>2.5</ele>
        <time>2019-10-06T13:02:38Z</time>
      </trkpt>
      <trkpt lat="50.39646" lon="1.56356">
        <ele>2.5</ele>
        <time>2019-10-06T13:02:44Z</time>
      </trkpt>
      <trkpt lat="50.39643" lon="1.56351">
        <ele>2.5</ele>
        <time>2019-10-06T13:02:48Z</time>
      </trkpt>
      <trkpt lat="50.3964" lon="1.56343">
        <ele>2.5</ele>
        <time>2019-10-06T13:02:53Z</time>
      </trkpt>
      <trkpt lat="50.39638" lon="1.56337">
        <ele>2.5</ele>
        <time>2019-10-06T13:02:57Z</time>
      </trkpt>
      <trkpt lat="50.39635" lon="1.5633">
        <ele>2.5</ele>
        <time>2019-10-06T13:03:02Z</time>
      </trkpt>
      <trkpt lat="50.39633" lon="1.56323">
        <ele>2.5</ele>
        <time>2019-10-06T13:03:06Z</time>
      </trkpt>
      <trkpt lat="50.39631" lon="1.56317">
        <ele>2.5</ele>
        <time>2019-10-06T13:03:10Z</time>
      </trkpt>
      <trkpt lat="50.39627" lon="1.5631">
        <ele>2.5</ele>
        <time>2019-10-06T13:03:14Z</time>
      </trkpt>
      <trkpt lat="50.39624" lon="1.56305">
        <ele>2.5</ele>
        <time>2019-10-06T13:03:18Z</time>
      </trkpt>
      <trkpt lat="50.3962" lon="1.56299">
        <ele>2.5</ele>
        <time>2019-10-06T13:03:22Z</time>
      </trkpt>
      <trkpt lat="50.39617" lon="1.56295">
        <ele>2.5</ele>
        <time>2019-10-06T13:03:26Z</time>
      </trkpt>
      <trkpt lat="50.39612" lon="1.56289">
        <ele>2.5</ele>
        <time>2019-10-06T13:03:31Z</time>
      </trkpt>
      <trkpt lat="50.39608" lon="1.56283">
        <ele>2.5</ele>
        <time>2019-10-06T13:03:35Z</time>
      </trkpt>
      <trkpt lat="50.39605" lon="1.56278">
        <ele>2.5</ele>
        <time>2019-10-06T13:03:39Z</time>
      </trkpt>
      <trkpt lat="50.39601" lon="1.56271">
        <ele>2.5</ele>
        <time>2019-10-06T13:03:43Z</time>
      </trkpt>
      <trkpt lat="50.39599" lon="1.56265">
        <ele>2.5</ele>
        <time>2019-10-06T13:03:47Z</time>
      </trkpt>
      <trkpt lat="50.39595" lon="1.56258">
        <ele>2.5</ele>
        <time>2019-10-06T13:03:51Z</time>
      </trkpt>
      <trkpt lat="50.39592" lon="1.56253">
        <ele>2.5</ele>
        <time>2019-10-06T13:03:56Z</time>
      </trkpt>
      <trkpt lat="50.39588" lon="1.56247">
        <ele>2.5</ele>
        <time>2019-10-06T13:04:00Z</time>
      </trkpt>
      <trkpt lat="50.39585" lon="1.56242">
        <ele>2.5</ele>
        <time>2019-10-06T13:04:05Z</time>
      </trkpt>
      <trkpt lat="50.39582" lon="1.56235">
        <ele>2.5</ele>
        <time>2019-10-06T13:04:10Z</time>
      </trkpt>
      <trkpt lat="50.39579" lon="1.56228">
        <ele>2.5</ele>
        <time>2019-10-06T13:04:15Z</time>
      </trkpt>
      <trkpt lat="50.39577" lon="1.56222">
        <ele>2.5</ele>
        <time>2019-10-06T13:04:20Z</time>
      </trkpt>
      <trkpt lat="50.39574" lon="1.56216">
        <ele>2.5</ele>
        <time>2019-10-06T13:04:25Z</time>
      </trkpt>
      <trkpt lat="50.3957" lon="1.56211">
        <ele>2.5</ele>
        <time>2019-10-06T13:04:30Z</time>
      </trkpt>
      <trkpt lat="50.39567" lon="1.56204">
        <ele>2.5</ele>
        <time>2019-10-06T13:04:34Z</time>
      </trkpt>
      <trkpt lat="50.39563" lon="1.56198">
        <ele>2.5</ele>
        <time>2019-10-06T13:04:39Z</time>
      </trkpt>
      <trkpt lat="50.3956" lon="1.56193">
        <ele>2.5</ele>
        <time>2019-10-06T13:04:43Z</time>
      </trkpt>
      <trkpt lat="50.39558" lon="1.56185">
        <ele>2.5</ele>
        <time>2019-10-06T13:04:47Z</time>
      </trkpt>
      <trkpt lat="50.39555" lon="1.56178">
        <ele>2.5</ele>
        <time>2019-10-06T13:04:51Z</time>
      </trkpt>
      <trkpt lat="50.39552" lon="1.56172">
        <ele>2.5</ele>
        <time>2019-10-06T13:04:55Z</time>
      </trkpt>
      <trkpt lat="50.39549" lon="1.56166">
        <ele>2.5</ele>
        <time>2019-10-06T13:04:59Z</time>
      </trkpt>
      <trkpt lat="50.39545" lon="1.5616">
        <ele>2.5</ele>
        <time>2019-10-06T13:05:03Z</time>
      </trkpt>
      <trkpt lat="50.39543" lon="1.56154">
        <ele>2.5</ele>
        <time>2019-10-06T13:05:07Z</time>
      </trkpt>
      <trkpt lat="50.39539" lon="1.5615">
        <ele>2.5</ele>
        <time>2019-10-06T13:05:11Z</time>
      </trkpt>
      <trkpt lat="50.39534" lon="1.56145">
        <ele>2.5</ele>
        <time>2019-10-06T13:05:15Z</time>
      </trkpt>
      <trkpt lat="50.3953" lon="1.56139">
        <ele>2.5</ele>
        <time>2019-10-06T13:05:19Z</time>
      </trkpt>
      <trkpt lat="50.39526" lon="1.56134">
        <ele>2.5</ele>
        <time>2019-10-06T13:05:23Z</time>
      </trkpt>
      <trkpt lat="50.39523" lon="1.56129">
        <ele>2.5</ele>
        <time>2019-10-06T13:05:27Z</time>
      </trkpt>
      <trkpt lat="50.39519" lon="1.56123">
        <ele>2.5</ele>
        <time>2019-10-06T13:05:32Z</time>
      </trkpt>
      <trkpt lat="50.39516" lon="1.56119">
        <ele>2.5</ele>
        <time>2019-10-06T13:05:36Z</time>
      </trkpt>
      <trkpt lat="50.39513" lon="1.56112">
        <ele>2.5</ele>
        <time>2019-10-06T13:05:40Z</time>
      </trkpt>
      <trkpt lat="50.3951" lon="1.56107">
        <ele>2.5</ele>
        <time>2019-10-06T13:05:44Z</time>
      </trkpt>
      <trkpt lat="50.39506" lon="1.56102">
        <ele>2.5</ele>
        <time>2019-10-06T13:05:48Z</time>
      </trkpt>
      <trkpt lat="50.39503" lon="1.56096">
        <ele>2.6</ele>
        <time>2019-10-06T13:05:54Z</time>
      </trkpt>
      <trkpt lat="50.39498" lon="1.5609">
        <ele>2.5</ele>
        <time>2019-10-06T13:05:58Z</time>
      </trkpt>
      <trkpt lat="50.39494" lon="1.56086">
        <ele>2.5</ele>
        <time>2019-10-06T13:06:02Z</time>
      </trkpt>
      <trkpt lat="50.3949" lon="1.56082">
        <ele>2.6</ele>
        <time>2019-10-06T13:06:07Z</time>
      </trkpt>
      <trkpt lat="50.39486" lon="1.56078">
        <ele>2.8</ele>
        <time>2019-10-06T13:06:12Z</time>
      </trkpt>
      <trkpt lat="50.39482" lon="1.56072">
        <ele>2.9</ele>
        <time>2019-10-06T13:06:18Z</time>
      </trkpt>
      <trkpt lat="50.39478" lon="1.56067">
        <ele>3</ele>
        <time>2019-10-06T13:06:23Z</time>
      </trkpt>
      <trkpt lat="50.39473" lon="1.56065">
        <ele>3.1</ele>
        <time>2019-10-06T13:06:29Z</time>
      </trkpt>
      <trkpt lat="50.39468" lon="1.56063">
        <ele>3.1</ele>
        <time>2019-10-06T13:06:34Z</time>
      </trkpt>
      <trkpt lat="50.39463" lon="1.56059">
        <ele>3.1</ele>
        <time>2019-10-06T13:06:39Z</time>
      </trkpt>
      <trkpt lat="50.39459" lon="1.56056">
        <ele>3.1</ele>
        <time>2019-10-06T13:06:45Z</time>
      </trkpt>
      <trkpt lat="50.39454" lon="1.56055">
        <ele>3.2</ele>
        <time>2019-10-06T13:06:51Z</time>
      </trkpt>
      <trkpt lat="50.3945" lon="1.56053">
        <ele>3.3</ele>
        <time>2019-10-06T13:06:58Z</time>
      </trkpt>
      <trkpt lat="50.39445" lon="1.56052">
        <ele>3.2</ele>
        <time>2019-10-06T13:07:03Z</time>
      </trkpt>
      <trkpt lat="50.3944" lon="1.56052">
        <ele>2.6</ele>
        <time>2019-10-06T13:07:24Z</time>
      </trkpt>
      <trkpt lat="50.39436" lon="1.56056">
        <ele>2.5</ele>
        <time>2019-10-06T13:07:29Z</time>
      </trkpt>
      <trkpt lat="50.39432" lon="1.5606">
        <ele>2.5</ele>
        <time>2019-10-06T13:07:40Z</time>
      </trkpt>
      <trkpt lat="50.39427" lon="1.56059">
        <ele>2.5</ele>
        <time>2019-10-06T13:08:24Z</time>
      </trkpt>
      <trkpt lat="50.39423" lon="1.56057">
        <ele>2.5</ele>
        <time>2019-10-06T13:09:01Z</time>
      </trkpt>
      <trkpt lat="50.39423" lon="1.56049">
        <ele>2.5</ele>
        <time>2019-10-06T13:10:06Z</time>
      </trkpt>
      <trkpt lat="50.39421" lon="1.56043">
        <ele>2.5</ele>
        <time>2019-10-06T13:10:29Z</time>
      </trkpt>
      <trkpt lat="50.39419" lon="1.56036">
        <ele>2.5</ele>
        <time>2019-10-06T13:10:36Z</time>
      </trkpt>
      <trkpt lat="50.39418" lon="1.56029">
        <ele>2.5</ele>
        <time>2019-10-06T13:10:45Z</time>
      </trkpt>
      <trkpt lat="50.39417" lon="1.56021">
        <ele>2.5</ele>
        <time>2019-10-06T13:10:58Z</time>
      </trkpt>
      <trkpt lat="50.39414" lon="1.56015">
        <ele>2.5</ele>
        <time>2019-10-06T13:11:05Z</time>
      </trkpt>
      <trkpt lat="50.39412" lon="1.56008">
        <ele>2.5</ele>
        <time>2019-10-06T13:11:16Z</time>
      </trkpt>
      <trkpt lat="50.3941" lon="1.56001">
        <ele>2.5</ele>
        <time>2019-10-06T13:11:25Z</time>
      </trkpt>
      <trkpt lat="50.39408" lon="1.55995">
        <ele>2.5</ele>
        <time>2019-10-06T13:11:32Z</time>
      </trkpt>
      <trkpt lat="50.39406" lon="1.55988">
        <ele>2.5</ele>
        <time>2019-10-06T13:11:42Z</time>
      </trkpt>
      <trkpt lat="50.39404" lon="1.55981">
        <ele>2.5</ele>
        <time>2019-10-06T13:11:49Z</time>
      </trkpt>
      <trkpt lat="50.39403" lon="1.55974">
        <ele>2.5</ele>
        <time>2019-10-06T13:11:59Z</time>
      </trkpt>
      <trkpt lat="50.394" lon="1.55967">
        <ele>2.5</ele>
        <time>2019-10-06T13:12:05Z</time>
      </trkpt>
      <trkpt lat="50.39398" lon="1.55961">
        <ele>2.5</ele>
        <time>2019-10-06T13:12:10Z</time>
      </trkpt>
      <trkpt lat="50.39395" lon="1.55954">
        <ele>2.5</ele>
        <time>2019-10-06T13:12:15Z</time>
      </trkpt>
      <trkpt lat="50.39393" lon="1.55948">
        <ele>2.5</ele>
        <time>2019-10-06T13:12:22Z</time>
      </trkpt>
      <trkpt lat="50.3939" lon="1.55942">
        <ele>2.5</ele>
        <time>2019-10-06T13:12:28Z</time>
      </trkpt>
      <trkpt lat="50.39389" lon="1.55935">
        <ele>2.5</ele>
        <time>2019-10-06T13:12:38Z</time>
      </trkpt>
      <trkpt lat="50.39389" lon="1.55943">
        <ele>2.5</ele>
        <time>2019-10-06T13:15:38Z</time>
      </trkpt>
      <trkpt lat="50.39393" lon="1.55948">
        <ele>2.5</ele>
        <time>2019-10-06T13:15:48Z</time>
      </trkpt>
      <trkpt lat="50.39395" lon="1.55955">
        <ele>2.5</ele>
        <time>2019-10-06T13:15:53Z</time>
      </trkpt>
      <trkpt lat="50.39395" lon="1.55962">
        <ele>2.5</ele>
        <time>2019-10-06T13:15:58Z</time>
      </trkpt>
      <trkpt lat="50.39396" lon="1.55969">
        <ele>2.5</ele>
        <time>2019-10-06T13:16:05Z</time>
      </trkpt>
      <trkpt lat="50.39399" lon="1.55975">
        <ele>2.5</ele>
        <time>2019-10-06T13:16:15Z</time>
      </trkpt>
      <trkpt lat="50.39403" lon="1.5598">
        <ele>2.5</ele>
        <time>2019-10-06T13:16:29Z</time>
      </trkpt>
      <trkpt lat="50.39406" lon="1.55985">
        <ele>2.5</ele>
        <time>2019-10-06T13:16:40Z</time>
      </trkpt>
      <trkpt lat="50.39407" lon="1.55993">
        <ele>2.5</ele>
        <time>2019-10-06T13:16:53Z</time>
      </trkpt>
      <trkpt lat="50.39407" lon="1.56001">
        <ele>2.5</ele>
        <time>2019-10-06T13:16:59Z</time>
      </trkpt>
      <trkpt lat="50.3941" lon="1.56007">
        <ele>2.5</ele>
        <time>2019-10-06T13:17:05Z</time>
      </trkpt>
      <trkpt lat="50.39411" lon="1.56014">
        <ele>2.5</ele>
        <time>2019-10-06T13:17:10Z</time>
      </trkpt>
      <trkpt lat="50.39414" lon="1.5602">
        <ele>2.5</ele>
        <time>2019-10-06T13:17:18Z</time>
      </trkpt>
      <trkpt lat="50.39415" lon="1.56027">
        <ele>2.5</ele>
        <time>2019-10-06T13:18:22Z</time>
      </trkpt>
      <trkpt lat="50.39418" lon="1.56032">
        <ele>2.5</ele>
        <time>2019-10-06T13:18:55Z</time>
      </trkpt>
      <trkpt lat="50.39421" lon="1.56038">
        <ele>2.5</ele>
        <time>2019-10-06T13:19:01Z</time>
      </trkpt>
      <trkpt lat="50.39423" lon="1.56045">
        <ele>2.5</ele>
        <time>2019-10-06T13:19:09Z</time>
      </trkpt>
      <trkpt lat="50.39426" lon="1.5605">
        <ele>2.5</ele>
        <time>2019-10-06T13:19:18Z</time>
      </trkpt>
      <trkpt lat="50.3943" lon="1.56054">
        <ele>2.5</ele>
        <time>2019-10-06T13:19:43Z</time>
      </trkpt>
      <trkpt lat="50.39435" lon="1.56055">
        <ele>2.5</ele>
        <time>2019-10-06T13:19:51Z</time>
      </trkpt>
      <trkpt lat="50.39439" lon="1.56057">
        <ele>2.5</ele>
        <time>2019-10-06T13:19:56Z</time>
      </trkpt>
      <trkpt lat="50.39443" lon="1.5606">
        <ele>2.5</ele>
        <time>2019-10-06T13:20:01Z</time>
      </trkpt>
      <trkpt lat="50.39446" lon="1.56066">
        <ele>2.5</ele>
        <time>2019-10-06T13:20:10Z</time>
      </trkpt>
      <trkpt lat="50.39447" lon="1.56073">
        <ele>2.5</ele>
        <time>2019-10-06T13:20:15Z</time>
      </trkpt>
      <trkpt lat="50.39448" lon="1.56081">
        <ele>2.5</ele>
        <time>2019-10-06T13:20:19Z</time>
      </trkpt>
      <trkpt lat="50.39448" lon="1.56088">
        <ele>2.5</ele>
        <time>2019-10-06T13:20:23Z</time>
      </trkpt>
      <trkpt lat="50.39449" lon="1.56095">
        <ele>2.5</ele>
        <time>2019-10-06T13:20:27Z</time>
      </trkpt>
      <trkpt lat="50.39451" lon="1.56102">
        <ele>2.5</ele>
        <time>2019-10-06T13:20:32Z</time>
      </trkpt>
      <trkpt lat="50.39453" lon="1.5611">
        <ele>2.5</ele>
        <time>2019-10-06T13:20:38Z</time>
      </trkpt>
      <trkpt lat="50.39454" lon="1.56117">
        <ele>2.5</ele>
        <time>2019-10-06T13:20:45Z</time>
      </trkpt>
      <trkpt lat="50.39455" lon="1.56124">
        <ele>2.5</ele>
        <time>2019-10-06T13:20:50Z</time>
      </trkpt>
      <trkpt lat="50.39458" lon="1.5613">
        <ele>2.5</ele>
        <time>2019-10-06T13:20:56Z</time>
      </trkpt>
      <trkpt lat="50.39461" lon="1.56136">
        <ele>2.5</ele>
        <time>2019-10-06T13:21:02Z</time>
      </trkpt>
      <trkpt lat="50.39464" lon="1.56143">
        <ele>2.5</ele>
        <time>2019-10-06T13:21:08Z</time>
      </trkpt>
      <trkpt lat="50.39466" lon="1.5615">
        <ele>2.5</ele>
        <time>2019-10-06T13:21:12Z</time>
      </trkpt>
      <trkpt lat="50.39469" lon="1.56156">
        <ele>2.5</ele>
        <time>2019-10-06T13:21:17Z</time>
      </trkpt>
      <trkpt lat="50.39472" lon="1.56163">
        <ele>2.5</ele>
        <time>2019-10-06T13:21:22Z</time>
      </trkpt>
      <trkpt lat="50.39476" lon="1.5617">
        <ele>2.5</ele>
        <time>2019-10-06T13:21:27Z</time>
      </trkpt>
      <trkpt lat="50.39479" lon="1.56175">
        <ele>2.5</ele>
        <time>2019-10-06T13:21:31Z</time>
      </trkpt>
      <trkpt lat="50.39482" lon="1.56181">
        <ele>2.5</ele>
        <time>2019-10-06T13:21:38Z</time>
      </trkpt>
      <trkpt lat="50.39487" lon="1.56185">
        <ele>2.5</ele>
        <time>2019-10-06T13:21:44Z</time>
      </trkpt>
      <trkpt lat="50.39492" lon="1.56187">
        <ele>2.5</ele>
        <time>2019-10-06T13:21:49Z</time>
      </trkpt>
      <trkpt lat="50.39496" lon="1.56189">
        <ele>2.5</ele>
        <time>2019-10-06T13:21:57Z</time>
      </trkpt>
      <trkpt lat="50.39501" lon="1.56187">
        <ele>2.5</ele>
        <time>2019-10-06T13:22:04Z</time>
      </trkpt>
      <trkpt lat="50.39506" lon="1.56188">
        <ele>2.5</ele>
        <time>2019-10-06T13:22:19Z</time>
      </trkpt>
      <trkpt lat="50.3951" lon="1.56193">
        <ele>2.5</ele>
        <time>2019-10-06T13:22:35Z</time>
      </trkpt>
      <trkpt lat="50.39513" lon="1.56197">
        <ele>2.5</ele>
        <time>2019-10-06T13:22:43Z</time>
      </trkpt>
      <trkpt lat="50.39517" lon="1.56202">
        <ele>2.5</ele>
        <time>2019-10-06T13:23:42Z</time>
      </trkpt>
      <trkpt lat="50.3952" lon="1.56207">
        <ele>2.5</ele>
        <time>2019-10-06T13:24:19Z</time>
      </trkpt>
      <trkpt lat="50.39524" lon="1.5621">
        <ele>2.5</ele>
        <time>2019-10-06T13:24:54Z</time>
      </trkpt>
      <trkpt lat="50.39528" lon="1.56215">
        <ele>2.5</ele>
        <time>2019-10-06T13:25:40Z</time>
      </trkpt>
      <trkpt lat="50.39531" lon="1.5622">
        <ele>2.5</ele>
        <time>2019-10-06T13:26:36Z</time>
      </trkpt>
      <trkpt lat="50.39534" lon="1.56226">
        <ele>2.5</ele>
        <time>2019-10-06T13:26:45Z</time>
      </trkpt>
      <trkpt lat="50.39536" lon="1.56233">
        <ele>2.5</ele>
        <time>2019-10-06T13:26:50Z</time>
      </trkpt>
      <trkpt lat="50.39539" lon="1.56239">
        <ele>2.5</ele>
        <time>2019-10-06T13:26:55Z</time>
      </trkpt>
      <trkpt lat="50.39542" lon="1.56244">
        <ele>2.5</ele>
        <time>2019-10-06T13:26:59Z</time>
      </trkpt>
      <trkpt lat="50.39545" lon="1.5625">
        <ele>2.5</ele>
        <time>2019-10-06T13:27:03Z</time>
      </trkpt>
      <trkpt lat="50.39548" lon="1.56257">
        <ele>2.5</ele>
        <time>2019-10-06T13:27:08Z</time>
      </trkpt>
      <trkpt lat="50.39549" lon="1.56264">
        <ele>2.5</ele>
        <time>2019-10-06T13:27:12Z</time>
      </trkpt>
      <trkpt lat="50.39553" lon="1.56271">
        <ele>2.5</ele>
        <time>2019-10-06T13:27:17Z</time>
      </trkpt>
      <trkpt lat="50.39555" lon="1.56278">
        <ele>2.5</ele>
        <time>2019-10-06T13:27:21Z</time>
      </trkpt>
      <trkpt lat="50.39556" lon="1.56285">
        <ele>2.5</ele>
        <time>2019-10-06T13:27:25Z</time>
      </trkpt>
      <trkpt lat="50.39557" lon="1.56293">
        <ele>2.5</ele>
        <time>2019-10-06T13:27:30Z</time>
      </trkpt>
      <trkpt lat="50.39557" lon="1.56301">
        <ele>2.5</ele>
        <time>2019-10-06T13:27:35Z</time>
      </trkpt>
      <trkpt lat="50.39559" lon="1.56307">
        <ele>2.5</ele>
        <time>2019-10-06T13:27:39Z</time>
      </trkpt>
      <trkpt lat="50.3956" lon="1.56314">
        <ele>2.5</ele>
        <time>2019-10-06T13:27:44Z</time>
      </trkpt>
      <trkpt lat="50.3956" lon="1.56321">
        <ele>2.5</ele>
        <time>2019-10-06T13:27:48Z</time>
      </trkpt>
      <trkpt lat="50.3956" lon="1.56329">
        <ele>2.5</ele>
        <time>2019-10-06T13:27:53Z</time>
      </trkpt>
      <trkpt lat="50.3956" lon="1.56336">
        <ele>2.5</ele>
        <time>2019-10-06T13:27:58Z</time>
      </trkpt>
      <trkpt lat="50.39561" lon="1.56344">
        <ele>2.5</ele>
        <time>2019-10-06T13:28:03Z</time>
      </trkpt>
      <trkpt lat="50.3956" lon="1.56352">
        <ele>2.5</ele>
        <time>2019-10-06T13:28:08Z</time>
      </trkpt>
      <trkpt lat="50.3956" lon="1.5636">
        <ele>2.5</ele>
        <time>2019-10-06T13:28:12Z</time>
      </trkpt>
      <trkpt lat="50.39559" lon="1.56368">
        <ele>2.5</ele>
        <time>2019-10-06T13:28:18Z</time>
      </trkpt>
      <trkpt lat="50.39557" lon="1.56375">
        <ele>2.5</ele>
        <time>2019-10-06T13:28:23Z</time>
      </trkpt>
      <trkpt lat="50.39556" lon="1.56382">
        <ele>2.5</ele>
        <time>2019-10-06T13:28:27Z</time>
      </trkpt>
      <trkpt lat="50.39555" lon="1.5639">
        <ele>2.5</ele>
        <time>2019-10-06T13:28:31Z</time>
      </trkpt>
      <trkpt lat="50.39553" lon="1.56398">
        <ele>2.5</ele>
        <time>2019-10-06T13:28:36Z</time>
      </trkpt>
      <trkpt lat="50.39551" lon="1.56406">
        <ele>2.5</ele>
        <time>2019-10-06T13:28:41Z</time>
      </trkpt>
      <trkpt lat="50.39551" lon="1.56414">
        <ele>2.5</ele>
        <time>2019-10-06T13:28:46Z</time>
      </trkpt>
      <trkpt lat="50.39551" lon="1.56421">
        <ele>2.5</ele>
        <time>2019-10-06T13:28:51Z</time>
      </trkpt>
      <trkpt lat="50.39551" lon="1.56428">
        <ele>2.5</ele>
        <time>2019-10-06T13:28:56Z</time>
      </trkpt>
      <trkpt lat="50.3955" lon="1.56437">
        <ele>2.5</ele>
        <time>2019-10-06T13:29:01Z</time>
      </trkpt>
      <trkpt lat="50.3955" lon="1.56444">
        <ele>2.5</ele>
        <time>2019-10-06T13:29:06Z</time>
      </trkpt>
      <trkpt lat="50.39551" lon="1.56451">
        <ele>2.5</ele>
        <time>2019-10-06T13:29:12Z</time>
      </trkpt>
      <trkpt lat="50.39551" lon="1.56458">
        <ele>2.5</ele>
        <time>2019-10-06T13:29:16Z</time>
      </trkpt>
      <trkpt lat="50.3955" lon="1.56466">
        <ele>2.5</ele>
        <time>2019-10-06T13:29:21Z</time>
      </trkpt>
      <trkpt lat="50.39551" lon="1.56475">
        <ele>2.5</ele>
        <time>2019-10-06T13:29:26Z</time>
      </trkpt>
      <trkpt lat="50.39552" lon="1.56482">
        <ele>2.5</ele>
        <time>2019-10-06T13:29:30Z</time>
      </trkpt>
      <trkpt lat="50.39552" lon="1.5649">
        <ele>2.5</ele>
        <time>2019-10-06T13:29:35Z</time>
      </trkpt>
      <trkpt lat="50.39551" lon="1.56497">
        <ele>2.5</ele>
        <time>2019-10-06T13:29:40Z</time>
      </trkpt>
      <trkpt lat="50.39552" lon="1.56504">
        <ele>2.5</ele>
        <time>2019-10-06T13:29:46Z</time>
      </trkpt>
      <trkpt lat="50.39552" lon="1.56513">
        <ele>2.5</ele>
        <time>2019-10-06T13:29:51Z</time>
      </trkpt>
      <trkpt lat="50.39554" lon="1.5652">
        <ele>2.5</ele>
        <time>2019-10-06T13:29:56Z</time>
      </trkpt>
      <trkpt lat="50.39555" lon="1.56527">
        <ele>2.5</ele>
        <time>2019-10-06T13:30:02Z</time>
      </trkpt>
      <trkpt lat="50.39555" lon="1.56534">
        <ele>2.5</ele>
        <time>2019-10-06T13:30:25Z</time>
      </trkpt>
      <trkpt lat="50.39555" lon="1.56542">
        <ele>2.5</ele>
        <time>2019-10-06T13:30:31Z</time>
      </trkpt>
      <trkpt lat="50.39554" lon="1.56549">
        <ele>2.5</ele>
        <time>2019-10-06T13:30:38Z</time>
      </trkpt>
      <trkpt lat="50.39555" lon="1.56556">
        <ele>2.5</ele>
        <time>2019-10-06T13:30:44Z</time>
      </trkpt>
      <trkpt lat="50.39555" lon="1.56563">
        <ele>2.5</ele>
        <time>2019-10-06T13:30:49Z</time>
      </trkpt>
      <trkpt lat="50.39555" lon="1.56571">
        <ele>2.5</ele>
        <time>2019-10-06T13:30:54Z</time>
      </trkpt>
      <trkpt lat="50.39555" lon="1.56579">
        <ele>2.5</ele>
        <time>2019-10-06T13:30:59Z</time>
      </trkpt>
      <trkpt lat="50.39556" lon="1.56586">
        <ele>2.5</ele>
        <time>2019-10-06T13:31:03Z</time>
      </trkpt>
      <trkpt lat="50.39556" lon="1.56594">
        <ele>2.5</ele>
        <time>2019-10-06T13:31:08Z</time>
      </trkpt>
      <trkpt lat="50.39556" lon="1.56601">
        <ele>2.5</ele>
        <time>2019-10-06T13:31:12Z</time>
      </trkpt>
      <trkpt lat="50.39555" lon="1.56608">
        <ele>2.5</ele>
        <time>2019-10-06T13:31:16Z</time>
      </trkpt>
      <trkpt lat="50.39554" lon="1.56616">
        <ele>2.5</ele>
        <time>2019-10-06T13:31:20Z</time>
      </trkpt>
      <trkpt lat="50.3955" lon="1.56613">
        <ele>2.5</ele>
        <time>2019-10-06T13:31:49Z</time>
      </trkpt>
      <trkpt lat="50.39554" lon="1.56618">
        <ele>2.5</ele>
        <time>2019-10-06T13:34:42Z</time>
      </trkpt>
      <trkpt lat="50.39557" lon="1.56613">
        <ele>2.5</ele>
        <time>2019-10-06T13:35:51Z</time>
      </trkpt>
      <trkpt lat="50.39554" lon="1.56619">
        <ele>2.5</ele>
        <time>2019-10-06T13:36:03Z</time>
      </trkpt>
      <trkpt lat="50.39559" lon="1.56619">
        <ele>2.5</ele>
        <time>2019-10-06T13:37:44Z</time>
      </trkpt>
      <trkpt lat="50.39563" lon="1.56622">
        <ele>2.5</ele>
        <time>2019-10-06T13:37:52Z</time>
      </trkpt>
      <trkpt lat="50.39562" lon="1.5663">
        <ele>2.5</ele>
        <time>2019-10-06T13:37:57Z</time>
      </trkpt>
      <trkpt lat="50.3956" lon="1.56638">
        <ele>2.5</ele>
        <time>2019-10-06T13:38:02Z</time>
      </trkpt>
      <trkpt lat="50.39558" lon="1.56645">
        <ele>2.5</ele>
        <time>2019-10-06T13:38:10Z</time>
      </trkpt>
      <trkpt lat="50.39559" lon="1.56653">
        <ele>2.5</ele>
        <time>2019-10-06T13:38:19Z</time>
      </trkpt>
      <trkpt lat="50.3956" lon="1.56661">
        <ele>2.5</ele>
        <time>2019-10-06T13:38:28Z</time>
      </trkpt>
      <trkpt lat="50.39562" lon="1.56668">
        <ele>2.5</ele>
        <time>2019-10-06T13:38:33Z</time>
      </trkpt>
      <trkpt lat="50.39564" lon="1.56674">
        <ele>2.5</ele>
        <time>2019-10-06T13:38:40Z</time>
      </trkpt>
      <trkpt lat="50.39566" lon="1.56681">
        <ele>2.5</ele>
        <time>2019-10-06T13:38:54Z</time>
      </trkpt>
      <trkpt lat="50.39568" lon="1.56689">
        <ele>2.5</ele>
        <time>2019-10-06T13:39:01Z</time>
      </trkpt>
      <trkpt lat="50.39569" lon="1.56697">
        <ele>2.5</ele>
        <time>2019-10-06T13:39:07Z</time>
      </trkpt>
      <trkpt lat="50.39571" lon="1.56705">
        <ele>2.5</ele>
        <time>2019-10-06T13:39:11Z</time>
      </trkpt>
      <trkpt lat="50.39572" lon="1.56714">
        <ele>2.5</ele>
        <time>2019-10-06T13:39:16Z</time>
      </trkpt>
      <trkpt lat="50.39571" lon="1.56721">
        <ele>2.5</ele>
        <time>2019-10-06T13:39:20Z</time>
      </trkpt>
      <trkpt lat="50.3957" lon="1.56729">
        <ele>2.5</ele>
        <time>2019-10-06T13:39:25Z</time>
      </trkpt>
      <trkpt lat="50.39572" lon="1.56736">
        <ele>2.5</ele>
        <time>2019-10-06T13:39:30Z</time>
      </trkpt>
      <trkpt lat="50.39575" lon="1.56742">
        <ele>2.5</ele>
        <time>2019-10-06T13:39:34Z</time>
      </trkpt>
      <trkpt lat="50.39578" lon="1.56746">
        <ele>2.5</ele>
        <time>2019-10-06T13:39:41Z</time>
      </trkpt>
      <trkpt lat="50.39582" lon="1.5675">
        <ele>2.5</ele>
        <time>2019-10-06T13:39:47Z</time>
      </trkpt>
      <trkpt lat="50.39586" lon="1.56754">
        <ele>2.5</ele>
        <time>2019-10-06T13:39:52Z</time>
      </trkpt>
      <trkpt lat="50.39587" lon="1.56763">
        <ele>2.5</ele>
        <time>2019-10-06T13:39:57Z</time>
      </trkpt>
      <trkpt lat="50.39588" lon="1.5677">
        <ele>2.5</ele>
        <time>2019-10-06T13:40:02Z</time>
      </trkpt>
      <trkpt lat="50.39589" lon="1.56777">
        <ele>2.5</ele>
        <time>2019-10-06T13:40:06Z</time>
      </trkpt>
      <trkpt lat="50.39588" lon="1.56785">
        <ele>2.5</ele>
        <time>2019-10-06T13:40:11Z</time>
      </trkpt>
      <trkpt lat="50.39588" lon="1.56792">
        <ele>2.5</ele>
        <time>2019-10-06T13:40:16Z</time>
      </trkpt>
      <trkpt lat="50.3959" lon="1.56799">
        <ele>2.5</ele>
        <time>2019-10-06T13:40:22Z</time>
      </trkpt>
      <trkpt lat="50.39592" lon="1.56806">
        <ele>2.5</ele>
        <time>2019-10-06T13:40:28Z</time>
      </trkpt>
      <trkpt lat="50.39592" lon="1.56813">
        <ele>2.5</ele>
        <time>2019-10-06T13:40:33Z</time>
      </trkpt>
      <trkpt lat="50.39592" lon="1.56821">
        <ele>2.5</ele>
        <time>2019-10-06T13:40:40Z</time>
      </trkpt>
      <trkpt lat="50.39594" lon="1.56827">
        <ele>2.5</ele>
        <time>2019-10-06T13:40:45Z</time>
      </trkpt>
      <trkpt lat="50.39595" lon="1.56835">
        <ele>2.5</ele>
        <time>2019-10-06T13:40:50Z</time>
      </trkpt>
      <trkpt lat="50.39595" lon="1.56842">
        <ele>2.5</ele>
        <time>2019-10-06T13:40:56Z</time>
      </trkpt>
      <trkpt lat="50.39595" lon="1.5685">
        <ele>2.5</ele>
        <time>2019-10-06T13:41:00Z</time>
      </trkpt>
      <trkpt lat="50.39594" lon="1.56857">
        <ele>2.5</ele>
        <time>2019-10-06T13:41:04Z</time>
      </trkpt>
      <trkpt lat="50.39592" lon="1.56864">
        <ele>2.5</ele>
        <time>2019-10-06T13:41:08Z</time>
      </trkpt>
      <trkpt lat="50.39591" lon="1.56871">
        <ele>2.5</ele>
        <time>2019-10-06T13:41:12Z</time>
      </trkpt>
      <trkpt lat="50.39589" lon="1.56879">
        <ele>2.5</ele>
        <time>2019-10-06T13:41:16Z</time>
      </trkpt>
      <trkpt lat="50.3959" lon="1.56886">
        <ele>2.5</ele>
        <time>2019-10-06T13:41:20Z</time>
      </trkpt>
      <trkpt lat="50.39591" lon="1.56893">
        <ele>2.5</ele>
        <time>2019-10-06T13:41:24Z</time>
      </trkpt>
      <trkpt lat="50.39593" lon="1.569">
        <ele>2.5</ele>
        <time>2019-10-06T13:41:30Z</time>
      </trkpt>
      <trkpt lat="50.39595" lon="1.56906">
        <ele>2.5</ele>
        <time>2019-10-06T13:41:42Z</time>
      </trkpt>
      <trkpt lat="50.39604" lon="1.56912">
        <ele>2.5</ele>
        <time>2019-10-06T13:42:08Z</time>
      </trkpt>
      <trkpt lat="50.39603" lon="1.56919">
        <ele>2.5</ele>
        <time>2019-10-06T13:42:13Z</time>
      </trkpt>
      <trkpt lat="50.396" lon="1.56926">
        <ele>2.5</ele>
        <time>2019-10-06T13:42:20Z</time>
      </trkpt>
      <trkpt lat="50.39597" lon="1.56932">
        <ele>2.5</ele>
        <time>2019-10-06T13:42:28Z</time>
      </trkpt>
      <trkpt lat="50.39595" lon="1.56938">
        <ele>2.5</ele>
        <time>2019-10-06T13:42:43Z</time>
      </trkpt>
      <trkpt lat="50.39594" lon="1.56931">
        <ele>2.5</ele>
        <time>2019-10-06T13:43:02Z</time>
      </trkpt>
      <trkpt lat="50.39597" lon="1.56936">
        <ele>2.5</ele>
        <time>2019-10-06T13:43:14Z</time>
      </trkpt>
      <trkpt lat="50.39597" lon="1.56944">
        <ele>2.5</ele>
        <time>2019-10-06T13:43:20Z</time>
      </trkpt>
      <trkpt lat="50.396" lon="1.5695">
        <ele>2.5</ele>
        <time>2019-10-06T13:43:27Z</time>
      </trkpt>
      <trkpt lat="50.39605" lon="1.56953">
        <ele>2.5</ele>
        <time>2019-10-06T13:43:32Z</time>
      </trkpt>
      <trkpt lat="50.39609" lon="1.56956">
        <ele>2.5</ele>
        <time>2019-10-06T13:43:36Z</time>
      </trkpt>
      <trkpt lat="50.39612" lon="1.56963">
        <ele>2.5</ele>
        <time>2019-10-06T13:43:40Z</time>
      </trkpt>
      <trkpt lat="50.39614" lon="1.56969">
        <ele>2.5</ele>
        <time>2019-10-06T13:43:47Z</time>
      </trkpt>
      <trkpt lat="50.39617" lon="1.56976">
        <ele>2.5</ele>
        <time>2019-10-06T13:43:52Z</time>
      </trkpt>
      <trkpt lat="50.39619" lon="1.56982">
        <ele>2.5</ele>
        <time>2019-10-06T13:43:58Z</time>
      </trkpt>
      <trkpt lat="50.3962" lon="1.56989">
        <ele>2.5</ele>
        <time>2019-10-06T13:44:03Z</time>
      </trkpt>
      <trkpt lat="50.39619" lon="1.56998">
        <ele>2.5</ele>
        <time>2019-10-06T13:44:08Z</time>
      </trkpt>
      <trkpt lat="50.39619" lon="1.57006">
        <ele>2.5</ele>
        <time>2019-10-06T13:44:14Z</time>
      </trkpt>
      <trkpt lat="50.39618" lon="1.57013">
        <ele>2.5</ele>
        <time>2019-10-06T13:44:19Z</time>
      </trkpt>
      <trkpt lat="50.39618" lon="1.5702">
        <ele>2.5</ele>
        <time>2019-10-06T13:44:23Z</time>
      </trkpt>
      <trkpt lat="50.39617" lon="1.57027">
        <ele>2.5</ele>
        <time>2019-10-06T13:44:27Z</time>
      </trkpt>
      <trkpt lat="50.39617" lon="1.57035">
        <ele>2.5</ele>
        <time>2019-10-06T13:44:30Z</time>
      </trkpt>
      <trkpt lat="50.39617" lon="1.57042">
        <ele>2.5</ele>
        <time>2019-10-06T13:44:34Z</time>
      </trkpt>
      <trkpt lat="50.39618" lon="1.5705">
        <ele>2.5</ele>
        <time>2019-10-06T13:44:40Z</time>
      </trkpt>
      <trkpt lat="50.39616" lon="1.57058">
        <ele>2.5</ele>
        <time>2019-10-06T13:44:46Z</time>
      </trkpt>
      <trkpt lat="50.39617" lon="1.57065">
        <ele>2.5</ele>
        <time>2019-10-06T13:44:48Z</time>
      </trkpt>
      <trkpt lat="50.39619" lon="1.57073">
        <ele>2.5</ele>
        <time>2019-10-06T13:44:52Z</time>
      </trkpt>
      <trkpt lat="50.39621" lon="1.5708">
        <ele>2.5</ele>
        <time>2019-10-06T13:44:55Z</time>
      </trkpt>
      <trkpt lat="50.39622" lon="1.57087">
        <ele>2.5</ele>
        <time>2019-10-06T13:44:59Z</time>
      </trkpt>
      <trkpt lat="50.39622" lon="1.57095">
        <ele>2.5</ele>
        <time>2019-10-06T13:45:03Z</time>
      </trkpt>
      <trkpt lat="50.39621" lon="1.57102">
        <ele>2.5</ele>
        <time>2019-10-06T13:45:08Z</time>
      </trkpt>
      <trkpt lat="50.39622" lon="1.57109">
        <ele>2.5</ele>
        <time>2019-10-06T13:45:14Z</time>
      </trkpt>
      <trkpt lat="50.39624" lon="1.57116">
        <ele>2.5</ele>
        <time>2019-10-06T13:45:24Z</time>
      </trkpt>
      <trkpt lat="50.39624" lon="1.57123">
        <ele>2.5</ele>
        <time>2019-10-06T13:45:29Z</time>
      </trkpt>
      <trkpt lat="50.39625" lon="1.5713">
        <ele>2.5</ele>
        <time>2019-10-06T13:45:34Z</time>
      </trkpt>
      <trkpt lat="50.39625" lon="1.57139">
        <ele>2.5</ele>
        <time>2019-10-06T13:45:40Z</time>
      </trkpt>
      <trkpt lat="50.39626" lon="1.57146">
        <ele>2.5</ele>
        <time>2019-10-06T13:45:44Z</time>
      </trkpt>
      <trkpt lat="50.39624" lon="1.57154">
        <ele>2.5</ele>
        <time>2019-10-06T13:45:48Z</time>
      </trkpt>
      <trkpt lat="50.39622" lon="1.57161">
        <ele>2.5</ele>
        <time>2019-10-06T13:45:52Z</time>
      </trkpt>
      <trkpt lat="50.39619" lon="1.57167">
        <ele>2.5</ele>
        <time>2019-10-06T13:45:55Z</time>
      </trkpt>
      <trkpt lat="50.39617" lon="1.57175">
        <ele>2.5</ele>
        <time>2019-10-06T13:45:59Z</time>
      </trkpt>
      <trkpt lat="50.39617" lon="1.57183">
        <ele>2.5</ele>
        <time>2019-10-06T13:46:04Z</time>
      </trkpt>
      <trkpt lat="50.39616" lon="1.5719">
        <ele>2.5</ele>
        <time>2019-10-06T13:46:10Z</time>
      </trkpt>
      <trkpt lat="50.39617" lon="1.57198">
        <ele>2.5</ele>
        <time>2019-10-06T13:46:17Z</time>
      </trkpt>
      <trkpt lat="50.39617" lon="1.57206">
        <ele>2.5</ele>
        <time>2019-10-06T13:46:22Z</time>
      </trkpt>
      <trkpt lat="50.39617" lon="1.57214">
        <ele>2.5</ele>
        <time>2019-10-06T13:46:26Z</time>
      </trkpt>
      <trkpt lat="50.39617" lon="1.57223">
        <ele>2.5</ele>
        <time>2019-10-06T13:46:31Z</time>
      </trkpt>
      <trkpt lat="50.39618" lon="1.5723">
        <ele>2.5</ele>
        <time>2019-10-06T13:46:39Z</time>
      </trkpt>
      <trkpt lat="50.39617" lon="1.5724">
        <ele>2.5</ele>
        <time>2019-10-06T13:46:44Z</time>
      </trkpt>
      <trkpt lat="50.39616" lon="1.57247">
        <ele>2.5</ele>
        <time>2019-10-06T13:46:46Z</time>
      </trkpt>
      <trkpt lat="50.39615" lon="1.57255">
        <ele>2.5</ele>
        <time>2019-10-06T13:46:50Z</time>
      </trkpt>
      <trkpt lat="50.39613" lon="1.57263">
        <ele>2.5</ele>
        <time>2019-10-06T13:46:55Z</time>
      </trkpt>
      <trkpt lat="50.39611" lon="1.5727">
        <ele>2.5</ele>
        <time>2019-10-06T13:46:59Z</time>
      </trkpt>
      <trkpt lat="50.3961" lon="1.57278">
        <ele>2.5</ele>
        <time>2019-10-06T13:47:03Z</time>
      </trkpt>
      <trkpt lat="50.39611" lon="1.57286">
        <ele>2.5</ele>
        <time>2019-10-06T13:47:09Z</time>
      </trkpt>
      <trkpt lat="50.39612" lon="1.57293">
        <ele>2.5</ele>
        <time>2019-10-06T13:47:16Z</time>
      </trkpt>
      <trkpt lat="50.3961" lon="1.57301">
        <ele>2.5</ele>
        <time>2019-10-06T13:47:22Z</time>
      </trkpt>
      <trkpt lat="50.39606" lon="1.57305">
        <ele>2.5</ele>
        <time>2019-10-06T13:47:35Z</time>
      </trkpt>
      <trkpt lat="50.39602" lon="1.57303">
        <ele>2.5</ele>
        <time>2019-10-06T13:48:23Z</time>
      </trkpt>
      <trkpt lat="50.39597" lon="1.57302">
        <ele>2.6</ele>
        <time>2019-10-06T13:48:37Z</time>
      </trkpt>
      <trkpt lat="50.39595" lon="1.57313">
        <ele>6.7</ele>
        <time>2019-10-06T13:53:08Z</time>
      </trkpt>
      <trkpt lat="50.39591" lon="1.57318">
        <ele>7.1</ele>
        <time>2019-10-06T13:53:13Z</time>
      </trkpt>
      <trkpt lat="50.3958" lon="1.57326">
        <ele>6.4</ele>
        <time>2019-10-06T13:53:50Z</time>
      </trkpt>
      <trkpt lat="50.39575" lon="1.57321">
        <ele>6.3</ele>
        <time>2019-10-06T13:53:55Z</time>
      </trkpt>
      <trkpt lat="50.39571" lon="1.57318">
        <ele>6</ele>
        <time>2019-10-06T13:54:01Z</time>
      </trkpt>
      <trkpt lat="50.39571" lon="1.5731">
        <ele>4.1</ele>
        <time>2019-10-06T13:54:33Z</time>
      </trkpt>
      <trkpt lat="50.39574" lon="1.57305">
        <ele>3.3</ele>
        <time>2019-10-06T13:54:47Z</time>
      </trkpt>
      <trkpt lat="50.39577" lon="1.57296">
        <ele>3.2</ele>
        <time>2019-10-06T13:54:52Z</time>
      </trkpt>
      <trkpt lat="50.39577" lon="1.57287">
        <ele>3.1</ele>
        <time>2019-10-06T13:54:56Z</time>
      </trkpt>
      <trkpt lat="50.39578" lon="1.57279">
        <ele>3</ele>
        <time>2019-10-06T13:55:01Z</time>
      </trkpt>
      <trkpt lat="50.39578" lon="1.57271">
        <ele>2.8</ele>
        <time>2019-10-06T13:55:06Z</time>
      </trkpt>
      <trkpt lat="50.39578" lon="1.57262">
        <ele>2.7</ele>
        <time>2019-10-06T13:55:11Z</time>
      </trkpt>
      <trkpt lat="50.39577" lon="1.57254">
        <ele>2.7</ele>
        <time>2019-10-06T13:55:15Z</time>
      </trkpt>
      <trkpt lat="50.39576" lon="1.57247">
        <ele>2.9</ele>
        <time>2019-10-06T13:55:19Z</time>
      </trkpt>
      <trkpt lat="50.39575" lon="1.57238">
        <ele>3.3</ele>
        <time>2019-10-06T13:55:24Z</time>
      </trkpt>
      <trkpt lat="50.39573" lon="1.57232">
        <ele>3.7</ele>
        <time>2019-10-06T13:55:28Z</time>
      </trkpt>
      <trkpt lat="50.39571" lon="1.57225">
        <ele>4</ele>
        <time>2019-10-06T13:55:32Z</time>
      </trkpt>
      <trkpt lat="50.39571" lon="1.57217">
        <ele>4.1</ele>
        <time>2019-10-06T13:55:36Z</time>
      </trkpt>
      <trkpt lat="50.39572" lon="1.57209">
        <ele>4.3</ele>
        <time>2019-10-06T13:55:39Z</time>
      </trkpt>
      <trkpt lat="50.39573" lon="1.57202">
        <ele>4.3</ele>
        <time>2019-10-06T13:55:42Z</time>
      </trkpt>
      <trkpt lat="50.39573" lon="1.57194">
        <ele>4.4</ele>
        <time>2019-10-06T13:55:46Z</time>
      </trkpt>
      <trkpt lat="50.39572" lon="1.57186">
        <ele>4.5</ele>
        <time>2019-10-06T13:55:50Z</time>
      </trkpt>
      <trkpt lat="50.39572" lon="1.57178">
        <ele>4.6</ele>
        <time>2019-10-06T13:55:54Z</time>
      </trkpt>
      <trkpt lat="50.39573" lon="1.5717">
        <ele>4.8</ele>
        <time>2019-10-06T13:55:58Z</time>
      </trkpt>
      <trkpt lat="50.39573" lon="1.57163">
        <ele>5</ele>
        <time>2019-10-06T13:56:02Z</time>
      </trkpt>
      <trkpt lat="50.39572" lon="1.57155">
        <ele>5.1</ele>
        <time>2019-10-06T13:56:06Z</time>
      </trkpt>
      <trkpt lat="50.39572" lon="1.57148">
        <ele>5.3</ele>
        <time>2019-10-06T13:56:10Z</time>
      </trkpt>
      <trkpt lat="50.39573" lon="1.57139">
        <ele>5.5</ele>
        <time>2019-10-06T13:56:15Z</time>
      </trkpt>
      <trkpt lat="50.39573" lon="1.57132">
        <ele>5.7</ele>
        <time>2019-10-06T13:56:20Z</time>
      </trkpt>
      <trkpt lat="50.39571" lon="1.57124">
        <ele>6</ele>
        <time>2019-10-06T13:56:26Z</time>
      </trkpt>
      <trkpt lat="50.39569" lon="1.57118">
        <ele>6.5</ele>
        <time>2019-10-06T13:56:33Z</time>
      </trkpt>
      <trkpt lat="50.39567" lon="1.57111">
        <ele>7.2</ele>
        <time>2019-10-06T13:56:41Z</time>
      </trkpt>
      <trkpt lat="50.39566" lon="1.57104">
        <ele>8.8</ele>
        <time>2019-10-06T13:58:28Z</time>
      </trkpt>
      <trkpt lat="50.39569" lon="1.57112">
        <ele>11.1</ele>
        <time>2019-10-06T13:58:57Z</time>
      </trkpt>
      <trkpt lat="50.3957" lon="1.57121">
        <ele>11.5</ele>
        <time>2019-10-06T13:59:01Z</time>
      </trkpt>
      <trkpt lat="50.39572" lon="1.57128">
        <ele>12.1</ele>
        <time>2019-10-06T13:59:06Z</time>
      </trkpt>
      <trkpt lat="50.39574" lon="1.57136">
        <ele>12.7</ele>
        <time>2019-10-06T13:59:11Z</time>
      </trkpt>
      <trkpt lat="50.39575" lon="1.57143">
        <ele>12.9</ele>
        <time>2019-10-06T13:59:14Z</time>
      </trkpt>
      <trkpt lat="50.39575" lon="1.5715">
        <ele>13.1</ele>
        <time>2019-10-06T13:59:17Z</time>
      </trkpt>
      <trkpt lat="50.39575" lon="1.57158">
        <ele>13.4</ele>
        <time>2019-10-06T13:59:20Z</time>
      </trkpt>
      <trkpt lat="50.39575" lon="1.57166">
        <ele>13.6</ele>
        <time>2019-10-06T13:59:23Z</time>
      </trkpt>
      <trkpt lat="50.39575" lon="1.57174">
        <ele>13.9</ele>
        <time>2019-10-06T13:59:27Z</time>
      </trkpt>
      <trkpt lat="50.39576" lon="1.57183">
        <ele>14</ele>
        <time>2019-10-06T13:59:31Z</time>
      </trkpt>
      <trkpt lat="50.39576" lon="1.5719">
        <ele>14.1</ele>
        <time>2019-10-06T13:59:34Z</time>
      </trkpt>
      <trkpt lat="50.39577" lon="1.57197">
        <ele>14.2</ele>
        <time>2019-10-06T13:59:37Z</time>
      </trkpt>
      <trkpt lat="50.39577" lon="1.57205">
        <ele>14.3</ele>
        <time>2019-10-06T13:59:41Z</time>
      </trkpt>
      <trkpt lat="50.39576" lon="1.57213">
        <ele>14.4</ele>
        <time>2019-10-06T13:59:45Z</time>
      </trkpt>
      <trkpt lat="50.39576" lon="1.57221">
        <ele>14.5</ele>
        <time>2019-10-06T13:59:49Z</time>
      </trkpt>
      <trkpt lat="50.39574" lon="1.5723">
        <ele>14.6</ele>
        <time>2019-10-06T13:59:53Z</time>
      </trkpt>
      <trkpt lat="50.39576" lon="1.57237">
        <ele>14.6</ele>
        <time>2019-10-06T13:59:58Z</time>
      </trkpt>
      <trkpt lat="50.39577" lon="1.57243">
        <ele>14.4</ele>
        <time>2019-10-06T14:00:03Z</time>
      </trkpt>
      <trkpt lat="50.39576" lon="1.57251">
        <ele>14.2</ele>
        <time>2019-10-06T14:00:07Z</time>
      </trkpt>
      <trkpt lat="50.39576" lon="1.5726">
        <ele>14</ele>
        <time>2019-10-06T14:00:11Z</time>
      </trkpt>
      <trkpt lat="50.39576" lon="1.57268">
        <ele>13.8</ele>
        <time>2019-10-06T14:00:15Z</time>
      </trkpt>
      <trkpt lat="50.39575" lon="1.57276">
        <ele>13.7</ele>
        <time>2019-10-06T14:00:19Z</time>
      </trkpt>
      <trkpt lat="50.39576" lon="1.57284">
        <ele>13.4</ele>
        <time>2019-10-06T14:00:23Z</time>
      </trkpt>
      <trkpt lat="50.39575" lon="1.57292">
        <ele>13.1</ele>
        <time>2019-10-06T14:00:26Z</time>
      </trkpt>
      <trkpt lat="50.39574" lon="1.57299">
        <ele>12.6</ele>
        <time>2019-10-06T14:00:31Z</time>
      </trkpt>
      <trkpt lat="50.39571" lon="1.57305">
        <ele>12.3</ele>
        <time>2019-10-06T14:00:35Z</time>
      </trkpt>
      <trkpt lat="50.39568" lon="1.57312">
        <ele>12</ele>
        <time>2019-10-06T14:00:39Z</time>
      </trkpt>
      <trkpt lat="50.39567" lon="1.57319">
        <ele>11.6</ele>
        <time>2019-10-06T14:00:45Z</time>
      </trkpt>
      <trkpt lat="50.39566" lon="1.57326">
        <ele>10.8</ele>
        <time>2019-10-06T14:00:52Z</time>
      </trkpt>
      <trkpt lat="50.39564" lon="1.57333">
        <ele>9.9</ele>
        <time>2019-10-06T14:00:58Z</time>
      </trkpt>
      <trkpt lat="50.39559" lon="1.57337">
        <ele>9.3</ele>
        <time>2019-10-06T14:01:02Z</time>
      </trkpt>
      <trkpt lat="50.39555" lon="1.57342">
        <ele>8.9</ele>
        <time>2019-10-06T14:01:05Z</time>
      </trkpt>
      <trkpt lat="50.3955" lon="1.57348">
        <ele>8.4</ele>
        <time>2019-10-06T14:01:09Z</time>
      </trkpt>
      <trkpt lat="50.39546" lon="1.57353">
        <ele>8</ele>
        <time>2019-10-06T14:01:13Z</time>
      </trkpt>
      <trkpt lat="50.39542" lon="1.57357">
        <ele>7.8</ele>
        <time>2019-10-06T14:01:16Z</time>
      </trkpt>
      <trkpt lat="50.39537" lon="1.57362">
        <ele>7.6</ele>
        <time>2019-10-06T14:01:19Z</time>
      </trkpt>
      <trkpt lat="50.39534" lon="1.57368">
        <ele>7.4</ele>
        <time>2019-10-06T14:01:23Z</time>
      </trkpt>
      <trkpt lat="50.39532" lon="1.57375">
        <ele>7.3</ele>
        <time>2019-10-06T14:01:26Z</time>
      </trkpt>
      <trkpt lat="50.39531" lon="1.57382">
        <ele>7.3</ele>
        <time>2019-10-06T14:01:29Z</time>
      </trkpt>
      <trkpt lat="50.3953" lon="1.5739">
        <ele>7.4</ele>
        <time>2019-10-06T14:01:33Z</time>
      </trkpt>
      <trkpt lat="50.3953" lon="1.57397">
        <ele>8</ele>
        <time>2019-10-06T14:01:45Z</time>
      </trkpt>
      <trkpt lat="50.3953" lon="1.57405">
        <ele>8.3</ele>
        <time>2019-10-06T14:01:49Z</time>
      </trkpt>
      <trkpt lat="50.39528" lon="1.57411">
        <ele>8.8</ele>
        <time>2019-10-06T14:01:55Z</time>
      </trkpt>
      <trkpt lat="50.39526" lon="1.57418">
        <ele>10.4</ele>
        <time>2019-10-06T14:02:09Z</time>
      </trkpt>
      <trkpt lat="50.39523" lon="1.57424">
        <ele>10.5</ele>
        <time>2019-10-06T14:02:15Z</time>
      </trkpt>
      <trkpt lat="50.3952" lon="1.5743">
        <ele>10.4</ele>
        <time>2019-10-06T14:02:19Z</time>
      </trkpt>
      <trkpt lat="50.39518" lon="1.57437">
        <ele>10</ele>
        <time>2019-10-06T14:02:23Z</time>
      </trkpt>
      <trkpt lat="50.39516" lon="1.57444">
        <ele>9.4</ele>
        <time>2019-10-06T14:02:28Z</time>
      </trkpt>
      <trkpt lat="50.39514" lon="1.57451">
        <ele>8.5</ele>
        <time>2019-10-06T14:02:33Z</time>
      </trkpt>
      <trkpt lat="50.39511" lon="1.57457">
        <ele>7.8</ele>
        <time>2019-10-06T14:02:37Z</time>
      </trkpt>
      <trkpt lat="50.39507" lon="1.57463">
        <ele>7.2</ele>
        <time>2019-10-06T14:02:41Z</time>
      </trkpt>
      <trkpt lat="50.39505" lon="1.5747">
        <ele>6.6</ele>
        <time>2019-10-06T14:02:45Z</time>
      </trkpt>
      <trkpt lat="50.39502" lon="1.57477">
        <ele>6.1</ele>
        <time>2019-10-06T14:02:49Z</time>
      </trkpt>
      <trkpt lat="50.39499" lon="1.57484">
        <ele>5.4</ele>
        <time>2019-10-06T14:02:54Z</time>
      </trkpt>
      <trkpt lat="50.39495" lon="1.57488">
        <ele>4.8</ele>
        <time>2019-10-06T14:02:58Z</time>
      </trkpt>
      <trkpt lat="50.3949" lon="1.5749">
        <ele>4.1</ele>
        <time>2019-10-06T14:03:02Z</time>
      </trkpt>
      <trkpt lat="50.39486" lon="1.57493">
        <ele>3.3</ele>
        <time>2019-10-06T14:03:07Z</time>
      </trkpt>
      <trkpt lat="50.39482" lon="1.57498">
        <ele>2.9</ele>
        <time>2019-10-06T14:03:11Z</time>
      </trkpt>
      <trkpt lat="50.3948" lon="1.57506">
        <ele>2.8</ele>
        <time>2019-10-06T14:03:14Z</time>
      </trkpt>
      <trkpt lat="50.39477" lon="1.57512">
        <ele>2.7</ele>
        <time>2019-10-06T14:03:17Z</time>
      </trkpt>
      <trkpt lat="50.39474" lon="1.57518">
        <ele>2.6</ele>
        <time>2019-10-06T14:03:21Z</time>
      </trkpt>
      <trkpt lat="50.39471" lon="1.57524">
        <ele>2.5</ele>
        <time>2019-10-06T14:03:25Z</time>
      </trkpt>
      <trkpt lat="50.39466" lon="1.57529">
        <ele>2.5</ele>
        <time>2019-10-06T14:03:29Z</time>
      </trkpt>
      <trkpt lat="50.3946" lon="1.57532">
        <ele>2.5</ele>
        <time>2019-10-06T14:03:34Z</time>
      </trkpt>
      <trkpt lat="50.39456" lon="1.57533">
        <ele>2.5</ele>
        <time>2019-10-06T14:03:37Z</time>
      </trkpt>
      <trkpt lat="50.3945" lon="1.57536">
        <ele>2.5</ele>
        <time>2019-10-06T14:03:41Z</time>
      </trkpt>
      <trkpt lat="50.39446" lon="1.57539">
        <ele>2.5</ele>
        <time>2019-10-06T14:03:44Z</time>
      </trkpt>
      <trkpt lat="50.39441" lon="1.57542">
        <ele>2.5</ele>
        <time>2019-10-06T14:03:48Z</time>
      </trkpt>
      <trkpt lat="50.39437" lon="1.57544">
        <ele>2.5</ele>
        <time>2019-10-06T14:03:52Z</time>
      </trkpt>
      <trkpt lat="50.39432" lon="1.57547">
        <ele>2.5</ele>
        <time>2019-10-06T14:03:57Z</time>
      </trkpt>
      <trkpt lat="50.39427" lon="1.57547">
        <ele>2.5</ele>
        <time>2019-10-06T14:04:04Z</time>
      </trkpt>
      <trkpt lat="50.39423" lon="1.57545">
        <ele>2.5</ele>
        <time>2019-10-06T14:04:10Z</time>
      </trkpt>
      <trkpt lat="50.39419" lon="1.57541">
        <ele>2.5</ele>
        <time>2019-10-06T14:04:14Z</time>
      </trkpt>
      <trkpt lat="50.39414" lon="1.57542">
        <ele>2.5</ele>
        <time>2019-10-06T14:04:20Z</time>
      </trkpt>
      <trkpt lat="50.3941" lon="1.57547">
        <ele>2.5</ele>
        <time>2019-10-06T14:04:25Z</time>
      </trkpt>
      <trkpt lat="50.39406" lon="1.57551">
        <ele>2.5</ele>
        <time>2019-10-06T14:04:31Z</time>
      </trkpt>
      <trkpt lat="50.39404" lon="1.57557">
        <ele>2.5</ele>
        <time>2019-10-06T14:04:40Z</time>
      </trkpt>
      <trkpt lat="50.39399" lon="1.57561">
        <ele>2.5</ele>
        <time>2019-10-06T14:04:47Z</time>
      </trkpt>
      <trkpt lat="50.39395" lon="1.57563">
        <ele>2.5</ele>
        <time>2019-10-06T14:04:55Z</time>
      </trkpt>
      <trkpt lat="50.3939" lon="1.57563">
        <ele>2.5</ele>
        <time>2019-10-06T14:05:08Z</time>
      </trkpt>
      <trkpt lat="50.39388" lon="1.57569">
        <ele>2.5</ele>
        <time>2019-10-06T14:05:41Z</time>
      </trkpt>
      <trkpt lat="50.39391" lon="1.57565">
        <ele>2.5</ele>
        <time>2019-10-06T14:06:44Z</time>
      </trkpt>
      <trkpt lat="50.39389" lon="1.57576">
        <ele>2.8</ele>
        <time>2019-10-06T14:07:43Z</time>
      </trkpt>
      <trkpt lat="50.39383" lon="1.57573">
        <ele>5.3</ele>
        <time>2019-10-06T14:10:39Z</time>
      </trkpt>
      <trkpt lat="50.39379" lon="1.57567">
        <ele>4.6</ele>
        <time>2019-10-06T14:10:45Z</time>
      </trkpt>
      <trkpt lat="50.39374" lon="1.57552">
        <ele>2.6</ele>
        <time>2019-10-06T14:10:56Z</time>
      </trkpt>
      <trkpt lat="50.39373" lon="1.57545">
        <ele>2.7</ele>
        <time>2019-10-06T14:11:02Z</time>
      </trkpt>
      <trkpt lat="50.39377" lon="1.57539">
        <ele>2.7</ele>
        <time>2019-10-06T14:11:05Z</time>
      </trkpt>
      <trkpt lat="50.39378" lon="1.57532">
        <ele>2.9</ele>
        <time>2019-10-06T14:11:10Z</time>
      </trkpt>
      <trkpt lat="50.3938" lon="1.57524">
        <ele>2.9</ele>
        <time>2019-10-06T14:11:20Z</time>
      </trkpt>
      <trkpt lat="50.39381" lon="1.57517">
        <ele>2.9</ele>
        <time>2019-10-06T14:11:27Z</time>
      </trkpt>
      <trkpt lat="50.39381" lon="1.5751">
        <ele>3.9</ele>
        <time>2019-10-06T14:11:47Z</time>
      </trkpt>
      <trkpt lat="50.39385" lon="1.57506">
        <ele>3.6</ele>
        <time>2019-10-06T14:11:54Z</time>
      </trkpt>
      <trkpt lat="50.39388" lon="1.575">
        <ele>3.3</ele>
        <time>2019-10-06T14:12:00Z</time>
      </trkpt>
      <trkpt lat="50.39389" lon="1.57492">
        <ele>3.4</ele>
        <time>2019-10-06T14:12:02Z</time>
      </trkpt>
      <trkpt lat="50.3939" lon="1.57485">
        <ele>3.5</ele>
        <time>2019-10-06T14:12:06Z</time>
      </trkpt>
      <trkpt lat="50.39391" lon="1.57477">
        <ele>3.6</ele>
        <time>2019-10-06T14:12:13Z</time>
      </trkpt>
      <trkpt lat="50.39393" lon="1.57469">
        <ele>3.7</ele>
        <time>2019-10-06T14:12:19Z</time>
      </trkpt>
      <trkpt lat="50.39396" lon="1.57462">
        <ele>3.8</ele>
        <time>2019-10-06T14:12:24Z</time>
      </trkpt>
      <trkpt lat="50.39398" lon="1.57455">
        <ele>3.8</ele>
        <time>2019-10-06T14:12:29Z</time>
      </trkpt>
      <trkpt lat="50.39398" lon="1.57448">
        <ele>3.8</ele>
        <time>2019-10-06T14:12:34Z</time>
      </trkpt>
      <trkpt lat="50.39398" lon="1.57439">
        <ele>3.7</ele>
        <time>2019-10-06T14:12:39Z</time>
      </trkpt>
      <trkpt lat="50.39397" lon="1.57432">
        <ele>3.5</ele>
        <time>2019-10-06T14:12:45Z</time>
      </trkpt>
      <trkpt lat="50.39397" lon="1.57425">
        <ele>3.2</ele>
        <time>2019-10-06T14:12:50Z</time>
      </trkpt>
      <trkpt lat="50.39395" lon="1.57417">
        <ele>3.1</ele>
        <time>2019-10-06T14:12:56Z</time>
      </trkpt>
      <trkpt lat="50.39393" lon="1.57411">
        <ele>2.9</ele>
        <time>2019-10-06T14:13:03Z</time>
      </trkpt>
      <trkpt lat="50.39392" lon="1.57403">
        <ele>2.6</ele>
        <time>2019-10-06T14:13:10Z</time>
      </trkpt>
      <trkpt lat="50.39391" lon="1.57395">
        <ele>2.5</ele>
        <time>2019-10-06T14:13:16Z</time>
      </trkpt>
      <trkpt lat="50.39392" lon="1.57388">
        <ele>2.5</ele>
        <time>2019-10-06T14:13:21Z</time>
      </trkpt>
      <trkpt lat="50.39391" lon="1.57381">
        <ele>2.7</ele>
        <time>2019-10-06T14:13:27Z</time>
      </trkpt>
      <trkpt lat="50.39389" lon="1.57374">
        <ele>3.3</ele>
        <time>2019-10-06T14:13:36Z</time>
      </trkpt>
      <trkpt lat="50.39387" lon="1.57368">
        <ele>3.3</ele>
        <time>2019-10-06T14:13:41Z</time>
      </trkpt>
      <trkpt lat="50.39385" lon="1.57361">
        <ele>3.5</ele>
        <time>2019-10-06T14:13:47Z</time>
      </trkpt>
      <trkpt lat="50.39384" lon="1.57354">
        <ele>4.4</ele>
        <time>2019-10-06T14:14:01Z</time>
      </trkpt>
      <trkpt lat="50.39383" lon="1.57346">
        <ele>4.5</ele>
        <time>2019-10-06T14:14:07Z</time>
      </trkpt>
      <trkpt lat="50.39382" lon="1.57339">
        <ele>4.2</ele>
        <time>2019-10-06T14:14:13Z</time>
      </trkpt>
      <trkpt lat="50.3938" lon="1.57333">
        <ele>3.9</ele>
        <time>2019-10-06T14:14:21Z</time>
      </trkpt>
      <trkpt lat="50.39378" lon="1.57326">
        <ele>3.8</ele>
        <time>2019-10-06T14:14:27Z</time>
      </trkpt>
      <trkpt lat="50.39376" lon="1.57318">
        <ele>3.7</ele>
        <time>2019-10-06T14:14:33Z</time>
      </trkpt>
      <trkpt lat="50.39376" lon="1.5731">
        <ele>3.5</ele>
        <time>2019-10-06T14:14:39Z</time>
      </trkpt>
      <trkpt lat="50.39375" lon="1.57303">
        <ele>3</ele>
        <time>2019-10-06T14:14:46Z</time>
      </trkpt>
      <trkpt lat="50.39372" lon="1.57297">
        <ele>2.5</ele>
        <time>2019-10-06T14:14:59Z</time>
      </trkpt>
      <trkpt lat="50.39369" lon="1.57292">
        <ele>2.6</ele>
        <time>2019-10-06T14:15:06Z</time>
      </trkpt>
      <trkpt lat="50.39365" lon="1.57287">
        <ele>2.8</ele>
        <time>2019-10-06T14:15:12Z</time>
      </trkpt>
      <trkpt lat="50.39362" lon="1.57281">
        <ele>2.9</ele>
        <time>2019-10-06T14:15:21Z</time>
      </trkpt>
      <trkpt lat="50.39359" lon="1.57276">
        <ele>3</ele>
        <time>2019-10-06T14:15:28Z</time>
      </trkpt>
      <trkpt lat="50.39357" lon="1.57269">
        <ele>3.5</ele>
        <time>2019-10-06T14:15:37Z</time>
      </trkpt>
      <trkpt lat="50.39356" lon="1.57261">
        <ele>3.7</ele>
        <time>2019-10-06T14:15:44Z</time>
      </trkpt>
      <trkpt lat="50.39354" lon="1.57255">
        <ele>3.9</ele>
        <time>2019-10-06T14:15:52Z</time>
      </trkpt>
      <trkpt lat="50.39353" lon="1.57248">
        <ele>4.9</ele>
        <time>2019-10-06T14:16:22Z</time>
      </trkpt>
      <trkpt lat="50.39349" lon="1.57245">
        <ele>2.8</ele>
        <time>2019-10-06T14:17:50Z</time>
      </trkpt>
      <trkpt lat="50.39344" lon="1.57241">
        <ele>3.2</ele>
        <time>2019-10-06T14:17:57Z</time>
      </trkpt>
      <trkpt lat="50.39342" lon="1.57235">
        <ele>3.9</ele>
        <time>2019-10-06T14:18:08Z</time>
      </trkpt>
      <trkpt lat="50.3934" lon="1.57228">
        <ele>3.7</ele>
        <time>2019-10-06T14:18:18Z</time>
      </trkpt>
      <trkpt lat="50.39339" lon="1.57221">
        <ele>3.3</ele>
        <time>2019-10-06T14:18:28Z</time>
      </trkpt>
      <trkpt lat="50.39335" lon="1.57216">
        <ele>2.8</ele>
        <time>2019-10-06T14:18:35Z</time>
      </trkpt>
      <trkpt lat="50.3933" lon="1.57212">
        <ele>2.6</ele>
        <time>2019-10-06T14:18:42Z</time>
      </trkpt>
      <trkpt lat="50.39327" lon="1.57207">
        <ele>2.5</ele>
        <time>2019-10-06T14:18:48Z</time>
      </trkpt>
      <trkpt lat="50.39323" lon="1.572">
        <ele>2.5</ele>
        <time>2019-10-06T14:18:53Z</time>
      </trkpt>
      <trkpt lat="50.39322" lon="1.57193">
        <ele>2.5</ele>
        <time>2019-10-06T14:19:00Z</time>
      </trkpt>
      <trkpt lat="50.3932" lon="1.57187">
        <ele>2.5</ele>
        <time>2019-10-06T14:19:08Z</time>
      </trkpt>
      <trkpt lat="50.39318" lon="1.5718">
        <ele>2.5</ele>
        <time>2019-10-06T14:19:14Z</time>
      </trkpt>
      <trkpt lat="50.39316" lon="1.57173">
        <ele>2.5</ele>
        <time>2019-10-06T14:19:18Z</time>
      </trkpt>
      <trkpt lat="50.39314" lon="1.57163">
        <ele>2.5</ele>
        <time>2019-10-06T14:19:22Z</time>
      </trkpt>
      <trkpt lat="50.39313" lon="1.57156">
        <ele>2.5</ele>
        <time>2019-10-06T14:19:25Z</time>
      </trkpt>
      <trkpt lat="50.39312" lon="1.57148">
        <ele>2.5</ele>
        <time>2019-10-06T14:19:29Z</time>
      </trkpt>
      <trkpt lat="50.39315" lon="1.57142">
        <ele>2.5</ele>
        <time>2019-10-06T14:19:39Z</time>
      </trkpt>
      <trkpt lat="50.39317" lon="1.57135">
        <ele>2.5</ele>
        <time>2019-10-06T14:19:50Z</time>
      </trkpt>
      <trkpt lat="50.39321" lon="1.57133">
        <ele>2.5</ele>
        <time>2019-10-06T14:19:56Z</time>
      </trkpt>
      <trkpt lat="50.39325" lon="1.57129">
        <ele>2.5</ele>
        <time>2019-10-06T14:20:11Z</time>
      </trkpt>
      <trkpt lat="50.39326" lon="1.57122">
        <ele>2.5</ele>
        <time>2019-10-06T14:20:15Z</time>
      </trkpt>
      <trkpt lat="50.39328" lon="1.57116">
        <ele>2.5</ele>
        <time>2019-10-06T14:20:20Z</time>
      </trkpt>
      <trkpt lat="50.39332" lon="1.57111">
        <ele>2.5</ele>
        <time>2019-10-06T14:20:25Z</time>
      </trkpt>
      <trkpt lat="50.39337" lon="1.57108">
        <ele>2.5</ele>
        <time>2019-10-06T14:20:28Z</time>
      </trkpt>
      <trkpt lat="50.39342" lon="1.57105">
        <ele>2.5</ele>
        <time>2019-10-06T14:20:31Z</time>
      </trkpt>
      <trkpt lat="50.39347" lon="1.57103">
        <ele>2.5</ele>
        <time>2019-10-06T14:20:35Z</time>
      </trkpt>
      <trkpt lat="50.39352" lon="1.57106">
        <ele>2.5</ele>
        <time>2019-10-06T14:20:39Z</time>
      </trkpt>
      <trkpt lat="50.39357" lon="1.57109">
        <ele>2.5</ele>
        <time>2019-10-06T14:20:44Z</time>
      </trkpt>
      <trkpt lat="50.39361" lon="1.57107">
        <ele>2.5</ele>
        <time>2019-10-06T14:20:49Z</time>
      </trkpt>
      <trkpt lat="50.39366" lon="1.57105">
        <ele>2.5</ele>
        <time>2019-10-06T14:20:55Z</time>
      </trkpt>
      <trkpt lat="50.3937" lon="1.57101">
        <ele>2.5</ele>
        <time>2019-10-06T14:21:00Z</time>
      </trkpt>
      <trkpt lat="50.39375" lon="1.57099">
        <ele>2.5</ele>
        <time>2019-10-06T14:21:04Z</time>
      </trkpt>
      <trkpt lat="50.39379" lon="1.57094">
        <ele>2.5</ele>
        <time>2019-10-06T14:21:10Z</time>
      </trkpt>
      <trkpt lat="50.39383" lon="1.57089">
        <ele>2.5</ele>
        <time>2019-10-06T14:21:14Z</time>
      </trkpt>
      <trkpt lat="50.39387" lon="1.57086">
        <ele>2.5</ele>
        <time>2019-10-06T14:21:18Z</time>
      </trkpt>
      <trkpt lat="50.39391" lon="1.57082">
        <ele>2.5</ele>
        <time>2019-10-06T14:21:23Z</time>
      </trkpt>
      <trkpt lat="50.39396" lon="1.57079">
        <ele>2.5</ele>
        <time>2019-10-06T14:21:28Z</time>
      </trkpt>
      <trkpt lat="50.394" lon="1.57076">
        <ele>2.5</ele>
        <time>2019-10-06T14:21:33Z</time>
      </trkpt>
      <trkpt lat="50.39404" lon="1.57074">
        <ele>2.5</ele>
        <time>2019-10-06T14:21:38Z</time>
      </trkpt>
      <trkpt lat="50.39408" lon="1.57069">
        <ele>2.5</ele>
        <time>2019-10-06T14:21:43Z</time>
      </trkpt>
      <trkpt lat="50.39412" lon="1.57064">
        <ele>2.5</ele>
        <time>2019-10-06T14:21:49Z</time>
      </trkpt>
      <trkpt lat="50.39416" lon="1.57059">
        <ele>2.5</ele>
        <time>2019-10-06T14:21:54Z</time>
      </trkpt>
      <trkpt lat="50.3942" lon="1.57054">
        <ele>2.5</ele>
        <time>2019-10-06T14:21:59Z</time>
      </trkpt>
      <trkpt lat="50.39424" lon="1.57049">
        <ele>2.5</ele>
        <time>2019-10-06T14:22:04Z</time>
      </trkpt>
      <trkpt lat="50.39428" lon="1.57045">
        <ele>2.5</ele>
        <time>2019-10-06T14:22:10Z</time>
      </trkpt>
      <trkpt lat="50.39432" lon="1.5704">
        <ele>2.5</ele>
        <time>2019-10-06T14:22:14Z</time>
      </trkpt>
      <trkpt lat="50.39435" lon="1.57034">
        <ele>2.5</ele>
        <time>2019-10-06T14:22:18Z</time>
      </trkpt>
      <trkpt lat="50.39439" lon="1.57029">
        <ele>2.5</ele>
        <time>2019-10-06T14:22:22Z</time>
      </trkpt>
      <trkpt lat="50.39443" lon="1.57023">
        <ele>2.5</ele>
        <time>2019-10-06T14:22:27Z</time>
      </trkpt>
      <trkpt lat="50.39447" lon="1.57018">
        <ele>2.5</ele>
        <time>2019-10-06T14:22:32Z</time>
      </trkpt>
      <trkpt lat="50.39451" lon="1.57013">
        <ele>2.5</ele>
        <time>2019-10-06T14:22:38Z</time>
      </trkpt>
      <trkpt lat="50.39454" lon="1.57007">
        <ele>2.5</ele>
        <time>2019-10-06T14:22:44Z</time>
      </trkpt>
      <trkpt lat="50.39456" lon="1.57">
        <ele>2.5</ele>
        <time>2019-10-06T14:22:50Z</time>
      </trkpt>
      <trkpt lat="50.39457" lon="1.56992">
        <ele>2.5</ele>
        <time>2019-10-06T14:22:56Z</time>
      </trkpt>
      <trkpt lat="50.39458" lon="1.56986">
        <ele>2.5</ele>
        <time>2019-10-06T14:23:05Z</time>
      </trkpt>
      <trkpt lat="50.39461" lon="1.5698">
        <ele>2.5</ele>
        <time>2019-10-06T14:23:15Z</time>
      </trkpt>
      <trkpt lat="50.39463" lon="1.56971">
        <ele>2.5</ele>
        <time>2019-10-06T14:23:19Z</time>
      </trkpt>
      <trkpt lat="50.39466" lon="1.56965">
        <ele>2.5</ele>
        <time>2019-10-06T14:23:22Z</time>
      </trkpt>
      <trkpt lat="50.3947" lon="1.5696">
        <ele>2.5</ele>
        <time>2019-10-06T14:23:28Z</time>
      </trkpt>
      <trkpt lat="50.39474" lon="1.56955">
        <ele>2.5</ele>
        <time>2019-10-06T14:23:35Z</time>
      </trkpt>
      <trkpt lat="50.39477" lon="1.56947">
        <ele>2.5</ele>
        <time>2019-10-06T14:23:39Z</time>
      </trkpt>
      <trkpt lat="50.3948" lon="1.5694">
        <ele>2.5</ele>
        <time>2019-10-06T14:23:43Z</time>
      </trkpt>
      <trkpt lat="50.39481" lon="1.56932">
        <ele>2.5</ele>
        <time>2019-10-06T14:23:49Z</time>
      </trkpt>
      <trkpt lat="50.39481" lon="1.56925">
        <ele>2.5</ele>
        <time>2019-10-06T14:23:55Z</time>
      </trkpt>
      <trkpt lat="50.39484" lon="1.56917">
        <ele>2.5</ele>
        <time>2019-10-06T14:23:59Z</time>
      </trkpt>
      <trkpt lat="50.39487" lon="1.56911">
        <ele>2.5</ele>
        <time>2019-10-06T14:24:03Z</time>
      </trkpt>
      <trkpt lat="50.39489" lon="1.56903">
        <ele>2.5</ele>
        <time>2019-10-06T14:24:08Z</time>
      </trkpt>
      <trkpt lat="50.39491" lon="1.56896">
        <ele>2.5</ele>
        <time>2019-10-06T14:24:12Z</time>
      </trkpt>
      <trkpt lat="50.39492" lon="1.56889">
        <ele>2.5</ele>
        <time>2019-10-06T14:24:15Z</time>
      </trkpt>
      <trkpt lat="50.39493" lon="1.56881">
        <ele>2.5</ele>
        <time>2019-10-06T14:24:20Z</time>
      </trkpt>
      <trkpt lat="50.39495" lon="1.56874">
        <ele>2.5</ele>
        <time>2019-10-06T14:24:24Z</time>
      </trkpt>
      <trkpt lat="50.39497" lon="1.56867">
        <ele>2.5</ele>
        <time>2019-10-06T14:24:29Z</time>
      </trkpt>
      <trkpt lat="50.39499" lon="1.5686">
        <ele>2.5</ele>
        <time>2019-10-06T14:24:33Z</time>
      </trkpt>
      <trkpt lat="50.39501" lon="1.56852">
        <ele>2.5</ele>
        <time>2019-10-06T14:24:38Z</time>
      </trkpt>
      <trkpt lat="50.39503" lon="1.56846">
        <ele>2.5</ele>
        <time>2019-10-06T14:24:43Z</time>
      </trkpt>
      <trkpt lat="50.39505" lon="1.56838">
        <ele>2.5</ele>
        <time>2019-10-06T14:24:49Z</time>
      </trkpt>
      <trkpt lat="50.39508" lon="1.56831">
        <ele>2.5</ele>
        <time>2019-10-06T14:24:54Z</time>
      </trkpt>
      <trkpt lat="50.39511" lon="1.56824">
        <ele>2.5</ele>
        <time>2019-10-06T14:24:59Z</time>
      </trkpt>
      <trkpt lat="50.39513" lon="1.56818">
        <ele>2.5</ele>
        <time>2019-10-06T14:25:03Z</time>
      </trkpt>
      <trkpt lat="50.39516" lon="1.56812">
        <ele>2.5</ele>
        <time>2019-10-06T14:25:08Z</time>
      </trkpt>
      <trkpt lat="50.39519" lon="1.56805">
        <ele>2.5</ele>
        <time>2019-10-06T14:25:14Z</time>
      </trkpt>
      <trkpt lat="50.39521" lon="1.56798">
        <ele>2.5</ele>
        <time>2019-10-06T14:25:18Z</time>
      </trkpt>
      <trkpt lat="50.39523" lon="1.56791">
        <ele>2.5</ele>
        <time>2019-10-06T14:25:22Z</time>
      </trkpt>
      <trkpt lat="50.39526" lon="1.56783">
        <ele>2.5</ele>
        <time>2019-10-06T14:25:26Z</time>
      </trkpt>
      <trkpt lat="50.39528" lon="1.56776">
        <ele>2.5</ele>
        <time>2019-10-06T14:25:30Z</time>
      </trkpt>
      <trkpt lat="50.3953" lon="1.56769">
        <ele>2.5</ele>
        <time>2019-10-06T14:25:34Z</time>
      </trkpt>
      <trkpt lat="50.39532" lon="1.56762">
        <ele>2.5</ele>
        <time>2019-10-06T14:25:38Z</time>
      </trkpt>
      <trkpt lat="50.39534" lon="1.56755">
        <ele>2.5</ele>
        <time>2019-10-06T14:25:42Z</time>
      </trkpt>
      <trkpt lat="50.39537" lon="1.56749">
        <ele>2.5</ele>
        <time>2019-10-06T14:25:47Z</time>
      </trkpt>
      <trkpt lat="50.3954" lon="1.56742">
        <ele>2.5</ele>
        <time>2019-10-06T14:25:51Z</time>
      </trkpt>
      <trkpt lat="50.39542" lon="1.56736">
        <ele>2.5</ele>
        <time>2019-10-06T14:25:55Z</time>
      </trkpt>
      <trkpt lat="50.39545" lon="1.56729">
        <ele>2.5</ele>
        <time>2019-10-06T14:25:59Z</time>
      </trkpt>
      <trkpt lat="50.39545" lon="1.56722">
        <ele>2.5</ele>
        <time>2019-10-06T14:26:03Z</time>
      </trkpt>
      <trkpt lat="50.39545" lon="1.56714">
        <ele>2.6</ele>
        <time>2019-10-06T14:26:07Z</time>
      </trkpt>
      <trkpt lat="50.39545" lon="1.56707">
        <ele>3</ele>
        <time>2019-10-06T14:26:12Z</time>
      </trkpt>
      <trkpt lat="50.39546" lon="1.567">
        <ele>3.6</ele>
        <time>2019-10-06T14:26:19Z</time>
      </trkpt>
      <trkpt lat="50.39548" lon="1.56693">
        <ele>4.2</ele>
        <time>2019-10-06T14:26:26Z</time>
      </trkpt>
      <trkpt lat="50.39549" lon="1.56686">
        <ele>4.5</ele>
        <time>2019-10-06T14:26:36Z</time>
      </trkpt>
      <trkpt lat="50.3955" lon="1.56678">
        <ele>4.9</ele>
        <time>2019-10-06T14:26:41Z</time>
      </trkpt>
      <trkpt lat="50.3955" lon="1.5667">
        <ele>5.2</ele>
        <time>2019-10-06T14:26:45Z</time>
      </trkpt>
      <trkpt lat="50.39552" lon="1.56663">
        <ele>5.5</ele>
        <time>2019-10-06T14:26:52Z</time>
      </trkpt>
      <trkpt lat="50.39553" lon="1.56656">
        <ele>5.2</ele>
        <time>2019-10-06T14:27:05Z</time>
      </trkpt>
      <trkpt lat="50.39553" lon="1.56649">
        <ele>5</ele>
        <time>2019-10-06T14:27:10Z</time>
      </trkpt>
      <trkpt lat="50.39554" lon="1.56641">
        <ele>4.8</ele>
        <time>2019-10-06T14:27:15Z</time>
      </trkpt>
      <trkpt lat="50.39556" lon="1.56634">
        <ele>4.5</ele>
        <time>2019-10-06T14:27:20Z</time>
      </trkpt>
      <trkpt lat="50.39555" lon="1.56626">
        <ele>3.9</ele>
        <time>2019-10-06T14:27:38Z</time>
      </trkpt>
      <trkpt lat="50.39555" lon="1.56619">
        <ele>4.1</ele>
        <time>2019-10-06T14:27:44Z</time>
      </trkpt>
      <trkpt lat="50.39556" lon="1.56612">
        <ele>4.4</ele>
        <time>2019-10-06T14:27:49Z</time>
      </trkpt>
      <trkpt lat="50.39557" lon="1.56605">
        <ele>4.6</ele>
        <time>2019-10-06T14:27:54Z</time>
      </trkpt>
      <trkpt lat="50.39557" lon="1.56598">
        <ele>5</ele>
        <time>2019-10-06T14:27:59Z</time>
      </trkpt>
      <trkpt lat="50.39559" lon="1.56591">
        <ele>5.9</ele>
        <time>2019-10-06T14:29:20Z</time>
      </trkpt>
      <trkpt lat="50.39558" lon="1.56584">
        <ele>6.3</ele>
        <time>2019-10-06T14:29:29Z</time>
      </trkpt>
      <trkpt lat="50.39559" lon="1.56592">
        <ele>5.4</ele>
        <time>2019-10-06T14:30:16Z</time>
      </trkpt>
      <trkpt lat="50.39557" lon="1.56598">
        <ele>5.3</ele>
        <time>2019-10-06T14:30:33Z</time>
      </trkpt>
      <trkpt lat="50.39558" lon="1.56591">
        <ele>7.3</ele>
        <time>2019-10-06T14:31:43Z</time>
      </trkpt>
      <trkpt lat="50.39557" lon="1.56584">
        <ele>7.4</ele>
        <time>2019-10-06T14:31:49Z</time>
      </trkpt>
      <trkpt lat="50.39556" lon="1.56576">
        <ele>7.9</ele>
        <time>2019-10-06T14:31:55Z</time>
      </trkpt>
      <trkpt lat="50.39556" lon="1.56568">
        <ele>8.5</ele>
        <time>2019-10-06T14:32:02Z</time>
      </trkpt>
      <trkpt lat="50.39557" lon="1.5656">
        <ele>8.6</ele>
        <time>2019-10-06T14:32:07Z</time>
      </trkpt>
      <trkpt lat="50.39558" lon="1.56553">
        <ele>8.6</ele>
        <time>2019-10-06T14:32:13Z</time>
      </trkpt>
      <trkpt lat="50.3956" lon="1.56546">
        <ele>8.2</ele>
        <time>2019-10-06T14:32:19Z</time>
      </trkpt>
      <trkpt lat="50.3956" lon="1.56538">
        <ele>7.6</ele>
        <time>2019-10-06T14:32:26Z</time>
      </trkpt>
      <trkpt lat="50.39559" lon="1.56531">
        <ele>7.3</ele>
        <time>2019-10-06T14:32:32Z</time>
      </trkpt>
      <trkpt lat="50.39559" lon="1.56524">
        <ele>7.1</ele>
        <time>2019-10-06T14:32:38Z</time>
      </trkpt>
      <trkpt lat="50.39558" lon="1.56516">
        <ele>7.2</ele>
        <time>2019-10-06T14:32:43Z</time>
      </trkpt>
      <trkpt lat="50.39558" lon="1.56507">
        <ele>7.3</ele>
        <time>2019-10-06T14:32:49Z</time>
      </trkpt>
      <trkpt lat="50.39557" lon="1.565">
        <ele>7.2</ele>
        <time>2019-10-06T14:32:56Z</time>
      </trkpt>
      <trkpt lat="50.39556" lon="1.56493">
        <ele>6.9</ele>
        <time>2019-10-06T14:33:02Z</time>
      </trkpt>
      <trkpt lat="50.39554" lon="1.56485">
        <ele>6.8</ele>
        <time>2019-10-06T14:33:07Z</time>
      </trkpt>
      <trkpt lat="50.39552" lon="1.56477">
        <ele>6.9</ele>
        <time>2019-10-06T14:33:12Z</time>
      </trkpt>
      <trkpt lat="50.39552" lon="1.5647">
        <ele>6.8</ele>
        <time>2019-10-06T14:33:16Z</time>
      </trkpt>
      <trkpt lat="50.39552" lon="1.5646">
        <ele>6.6</ele>
        <time>2019-10-06T14:33:20Z</time>
      </trkpt>
      <trkpt lat="50.39553" lon="1.56453">
        <ele>6.5</ele>
        <time>2019-10-06T14:33:24Z</time>
      </trkpt>
      <trkpt lat="50.39554" lon="1.56446">
        <ele>6.3</ele>
        <time>2019-10-06T14:33:28Z</time>
      </trkpt>
      <trkpt lat="50.39553" lon="1.56438">
        <ele>6.1</ele>
        <time>2019-10-06T14:33:34Z</time>
      </trkpt>
      <trkpt lat="50.39554" lon="1.5643">
        <ele>5.9</ele>
        <time>2019-10-06T14:33:39Z</time>
      </trkpt>
      <trkpt lat="50.39554" lon="1.56422">
        <ele>5.7</ele>
        <time>2019-10-06T14:33:44Z</time>
      </trkpt>
      <trkpt lat="50.39555" lon="1.56414">
        <ele>5.3</ele>
        <time>2019-10-06T14:33:50Z</time>
      </trkpt>
      <trkpt lat="50.39555" lon="1.56406">
        <ele>5.2</ele>
        <time>2019-10-06T14:33:56Z</time>
      </trkpt>
      <trkpt lat="50.39555" lon="1.56398">
        <ele>5.2</ele>
        <time>2019-10-06T14:34:01Z</time>
      </trkpt>
      <trkpt lat="50.39556" lon="1.5639">
        <ele>5.3</ele>
        <time>2019-10-06T14:34:06Z</time>
      </trkpt>
      <trkpt lat="50.39557" lon="1.56382">
        <ele>5.5</ele>
        <time>2019-10-06T14:34:11Z</time>
      </trkpt>
      <trkpt lat="50.39558" lon="1.56375">
        <ele>5.6</ele>
        <time>2019-10-06T14:34:15Z</time>
      </trkpt>
      <trkpt lat="50.39558" lon="1.56366">
        <ele>5.9</ele>
        <time>2019-10-06T14:34:21Z</time>
      </trkpt>
      <trkpt lat="50.39558" lon="1.56358">
        <ele>6.4</ele>
        <time>2019-10-06T14:34:26Z</time>
      </trkpt>
      <trkpt lat="50.39557" lon="1.56351">
        <ele>6.8</ele>
        <time>2019-10-06T14:34:31Z</time>
      </trkpt>
      <trkpt lat="50.39557" lon="1.56343">
        <ele>7</ele>
        <time>2019-10-06T14:34:35Z</time>
      </trkpt>
      <trkpt lat="50.39557" lon="1.56336">
        <ele>7.3</ele>
        <time>2019-10-06T14:34:40Z</time>
      </trkpt>
      <trkpt lat="50.39557" lon="1.56329">
        <ele>7.7</ele>
        <time>2019-10-06T14:34:46Z</time>
      </trkpt>
      <trkpt lat="50.39557" lon="1.56322">
        <ele>7.9</ele>
        <time>2019-10-06T14:34:51Z</time>
      </trkpt>
      <trkpt lat="50.39557" lon="1.56314">
        <ele>8.2</ele>
        <time>2019-10-06T14:34:56Z</time>
      </trkpt>
      <trkpt lat="50.39558" lon="1.56306">
        <ele>8.3</ele>
        <time>2019-10-06T14:35:02Z</time>
      </trkpt>
      <trkpt lat="50.39559" lon="1.56299">
        <ele>8.4</ele>
        <time>2019-10-06T14:35:06Z</time>
      </trkpt>
      <trkpt lat="50.39558" lon="1.5629">
        <ele>8.2</ele>
        <time>2019-10-06T14:35:12Z</time>
      </trkpt>
      <trkpt lat="50.39556" lon="1.56283">
        <ele>8.2</ele>
        <time>2019-10-06T14:35:17Z</time>
      </trkpt>
      <trkpt lat="50.39554" lon="1.56276">
        <ele>8</ele>
        <time>2019-10-06T14:35:25Z</time>
      </trkpt>
      <trkpt lat="50.39552" lon="1.56269">
        <ele>8.1</ele>
        <time>2019-10-06T14:35:33Z</time>
      </trkpt>
      <trkpt lat="50.39551" lon="1.56261">
        <ele>8.2</ele>
        <time>2019-10-06T14:35:37Z</time>
      </trkpt>
      <trkpt lat="50.39549" lon="1.56254">
        <ele>8.1</ele>
        <time>2019-10-06T14:35:43Z</time>
      </trkpt>
      <trkpt lat="50.39546" lon="1.56248">
        <ele>8.2</ele>
        <time>2019-10-06T14:35:50Z</time>
      </trkpt>
      <trkpt lat="50.39544" lon="1.56241">
        <ele>8.1</ele>
        <time>2019-10-06T14:35:56Z</time>
      </trkpt>
      <trkpt lat="50.39542" lon="1.56235">
        <ele>7.9</ele>
        <time>2019-10-06T14:36:04Z</time>
      </trkpt>
      <trkpt lat="50.39542" lon="1.56228">
        <ele>7.3</ele>
        <time>2019-10-06T14:36:20Z</time>
      </trkpt>
      <trkpt lat="50.39541" lon="1.5622">
        <ele>5.3</ele>
        <time>2019-10-06T14:36:31Z</time>
      </trkpt>
      <trkpt lat="50.39537" lon="1.56213">
        <ele>3.8</ele>
        <time>2019-10-06T14:36:37Z</time>
      </trkpt>
      <trkpt lat="50.39534" lon="1.56206">
        <ele>3.2</ele>
        <time>2019-10-06T14:36:41Z</time>
      </trkpt>
      <trkpt lat="50.39531" lon="1.562">
        <ele>2.8</ele>
        <time>2019-10-06T14:36:47Z</time>
      </trkpt>
      <trkpt lat="50.39527" lon="1.56195">
        <ele>2.6</ele>
        <time>2019-10-06T14:36:53Z</time>
      </trkpt>
      <trkpt lat="50.39522" lon="1.5619">
        <ele>2.5</ele>
        <time>2019-10-06T14:36:57Z</time>
      </trkpt>
      <trkpt lat="50.39518" lon="1.56185">
        <ele>2.5</ele>
        <time>2019-10-06T14:37:02Z</time>
      </trkpt>
      <trkpt lat="50.39514" lon="1.56185">
        <ele>2.5</ele>
        <time>2019-10-06T14:37:10Z</time>
      </trkpt>
      <trkpt lat="50.39508" lon="1.56184">
        <ele>2.5</ele>
        <time>2019-10-06T14:37:15Z</time>
      </trkpt>
      <trkpt lat="50.39503" lon="1.56183">
        <ele>2.5</ele>
        <time>2019-10-06T14:37:20Z</time>
      </trkpt>
      <trkpt lat="50.39498" lon="1.5618">
        <ele>2.5</ele>
        <time>2019-10-06T14:37:28Z</time>
      </trkpt>
      <trkpt lat="50.39494" lon="1.56176">
        <ele>2.5</ele>
        <time>2019-10-06T14:37:31Z</time>
      </trkpt>
      <trkpt lat="50.39491" lon="1.56172">
        <ele>2.5</ele>
        <time>2019-10-06T14:37:35Z</time>
      </trkpt>
      <trkpt lat="50.39488" lon="1.56167">
        <ele>2.5</ele>
        <time>2019-10-06T14:37:41Z</time>
      </trkpt>
      <trkpt lat="50.39484" lon="1.56161">
        <ele>2.5</ele>
        <time>2019-10-06T14:37:49Z</time>
      </trkpt>
      <trkpt lat="50.39483" lon="1.56154">
        <ele>2.5</ele>
        <time>2019-10-06T14:37:55Z</time>
      </trkpt>
      <trkpt lat="50.39482" lon="1.56146">
        <ele>2.5</ele>
        <time>2019-10-06T14:38:06Z</time>
      </trkpt>
      <trkpt lat="50.3948" lon="1.56139">
        <ele>2.5</ele>
        <time>2019-10-06T14:38:13Z</time>
      </trkpt>
      <trkpt lat="50.39478" lon="1.56132">
        <ele>2.5</ele>
        <time>2019-10-06T14:38:19Z</time>
      </trkpt>
      <trkpt lat="50.39476" lon="1.56125">
        <ele>2.5</ele>
        <time>2019-10-06T14:38:25Z</time>
      </trkpt>
      <trkpt lat="50.39474" lon="1.56118">
        <ele>2.5</ele>
        <time>2019-10-06T14:38:31Z</time>
      </trkpt>
      <trkpt lat="50.39469" lon="1.56116">
        <ele>2.5</ele>
        <time>2019-10-06T14:38:36Z</time>
      </trkpt>
      <trkpt lat="50.39463" lon="1.56116">
        <ele>2.5</ele>
        <time>2019-10-06T14:38:40Z</time>
      </trkpt>
      <trkpt lat="50.39459" lon="1.56114">
        <ele>2.5</ele>
        <time>2019-10-06T14:38:44Z</time>
      </trkpt>
      <trkpt lat="50.39456" lon="1.56108">
        <ele>2.5</ele>
        <time>2019-10-06T14:38:52Z</time>
      </trkpt>
      <trkpt lat="50.39458" lon="1.56101">
        <ele>2.5</ele>
        <time>2019-10-06T14:38:58Z</time>
      </trkpt>
      <trkpt lat="50.39457" lon="1.56093">
        <ele>2.5</ele>
        <time>2019-10-06T14:39:05Z</time>
      </trkpt>
      <trkpt lat="50.39453" lon="1.56087">
        <ele>2.5</ele>
        <time>2019-10-06T14:39:10Z</time>
      </trkpt>
      <trkpt lat="50.39452" lon="1.5608">
        <ele>2.5</ele>
        <time>2019-10-06T14:39:16Z</time>
      </trkpt>
      <trkpt lat="50.39451" lon="1.56072">
        <ele>2.5</ele>
        <time>2019-10-06T14:39:23Z</time>
      </trkpt>
      <trkpt lat="50.39453" lon="1.56064">
        <ele>7.5</ele>
        <time>2019-10-06T14:41:02Z</time>
      </trkpt>
      <trkpt lat="50.39454" lon="1.56057">
        <ele>7.7</ele>
        <time>2019-10-06T14:41:07Z</time>
      </trkpt>
      <trkpt lat="50.39455" lon="1.56048">
        <ele>7.7</ele>
        <time>2019-10-06T14:41:12Z</time>
      </trkpt>
      <trkpt lat="50.39456" lon="1.56042">
        <ele>7.6</ele>
        <time>2019-10-06T14:41:16Z</time>
      </trkpt>
      <trkpt lat="50.39459" lon="1.56035">
        <ele>7.5</ele>
        <time>2019-10-06T14:41:22Z</time>
      </trkpt>
      <trkpt lat="50.39463" lon="1.56028">
        <ele>7.3</ele>
        <time>2019-10-06T14:41:26Z</time>
      </trkpt>
      <trkpt lat="50.39467" lon="1.56023">
        <ele>6.9</ele>
        <time>2019-10-06T14:41:30Z</time>
      </trkpt>
      <trkpt lat="50.3947" lon="1.56016">
        <ele>6.6</ele>
        <time>2019-10-06T14:41:33Z</time>
      </trkpt>
      <trkpt lat="50.39473" lon="1.56009">
        <ele>6.2</ele>
        <time>2019-10-06T14:41:36Z</time>
      </trkpt>
      <trkpt lat="50.39476" lon="1.56004">
        <ele>5.7</ele>
        <time>2019-10-06T14:41:39Z</time>
      </trkpt>
      <trkpt lat="50.3948" lon="1.56">
        <ele>4.3</ele>
        <time>2019-10-06T14:41:45Z</time>
      </trkpt>
      <trkpt lat="50.39484" lon="1.55995">
        <ele>3.4</ele>
        <time>2019-10-06T14:41:49Z</time>
      </trkpt>
      <trkpt lat="50.39489" lon="1.55991">
        <ele>2.9</ele>
        <time>2019-10-06T14:41:54Z</time>
      </trkpt>
      <trkpt lat="50.39493" lon="1.55987">
        <ele>2.7</ele>
        <time>2019-10-06T14:41:59Z</time>
      </trkpt>
      <trkpt lat="50.39497" lon="1.55981">
        <ele>2.6</ele>
        <time>2019-10-06T14:42:03Z</time>
      </trkpt>
      <trkpt lat="50.395" lon="1.55975">
        <ele>2.5</ele>
        <time>2019-10-06T14:42:06Z</time>
      </trkpt>
      <trkpt lat="50.39503" lon="1.5597">
        <ele>2.5</ele>
        <time>2019-10-06T14:42:10Z</time>
      </trkpt>
      <trkpt lat="50.39506" lon="1.55965">
        <ele>2.5</ele>
        <time>2019-10-06T14:42:14Z</time>
      </trkpt>
      <trkpt lat="50.3951" lon="1.55959">
        <ele>2.5</ele>
        <time>2019-10-06T14:42:19Z</time>
      </trkpt>
      <trkpt lat="50.39513" lon="1.55953">
        <ele>2.5</ele>
        <time>2019-10-06T14:42:24Z</time>
      </trkpt>
      <trkpt lat="50.39517" lon="1.55947">
        <ele>2.5</ele>
        <time>2019-10-06T14:42:29Z</time>
      </trkpt>
      <trkpt lat="50.3952" lon="1.55942">
        <ele>2.5</ele>
        <time>2019-10-06T14:42:34Z</time>
      </trkpt>
      <trkpt lat="50.39519" lon="1.55935">
        <ele>2.5</ele>
        <time>2019-10-06T14:42:45Z</time>
      </trkpt>
      <trkpt lat="50.39521" lon="1.55928">
        <ele>2.5</ele>
        <time>2019-10-06T14:42:53Z</time>
      </trkpt>
      <trkpt lat="50.39524" lon="1.5592">
        <ele>2.5</ele>
        <time>2019-10-06T14:42:59Z</time>
      </trkpt>
      <trkpt lat="50.39528" lon="1.55914">
        <ele>2.5</ele>
        <time>2019-10-06T14:43:03Z</time>
      </trkpt>
      <trkpt lat="50.39532" lon="1.5591">
        <ele>2.5</ele>
        <time>2019-10-06T14:43:07Z</time>
      </trkpt>
      <trkpt lat="50.39535" lon="1.55903">
        <ele>2.5</ele>
        <time>2019-10-06T14:43:12Z</time>
      </trkpt>
      <trkpt lat="50.39539" lon="1.55897">
        <ele>2.5</ele>
        <time>2019-10-06T14:43:16Z</time>
      </trkpt>
      <trkpt lat="50.39542" lon="1.5589">
        <ele>2.5</ele>
        <time>2019-10-06T14:43:20Z</time>
      </trkpt>
      <trkpt lat="50.39545" lon="1.55884">
        <ele>2.5</ele>
        <time>2019-10-06T14:43:25Z</time>
      </trkpt>
      <trkpt lat="50.39548" lon="1.55878">
        <ele>2.7</ele>
        <time>2019-10-06T14:43:29Z</time>
      </trkpt>
      <trkpt lat="50.39552" lon="1.55871">
        <ele>3.1</ele>
        <time>2019-10-06T14:43:34Z</time>
      </trkpt>
      <trkpt lat="50.39555" lon="1.55865">
        <ele>3.3</ele>
        <time>2019-10-06T14:43:37Z</time>
      </trkpt>
      <trkpt lat="50.39559" lon="1.55862">
        <ele>3.6</ele>
        <time>2019-10-06T14:43:42Z</time>
      </trkpt>
      <trkpt lat="50.39564" lon="1.55857">
        <ele>3.9</ele>
        <time>2019-10-06T14:43:48Z</time>
      </trkpt>
      <trkpt lat="50.39568" lon="1.55851">
        <ele>4.1</ele>
        <time>2019-10-06T14:43:53Z</time>
      </trkpt>
      <trkpt lat="50.39571" lon="1.55847">
        <ele>4.2</ele>
        <time>2019-10-06T14:43:59Z</time>
      </trkpt>
      <trkpt lat="50.39575" lon="1.55841">
        <ele>3.2</ele>
        <time>2019-10-06T14:44:09Z</time>
      </trkpt>
      <trkpt lat="50.39579" lon="1.55837">
        <ele>2.7</ele>
        <time>2019-10-06T14:44:16Z</time>
      </trkpt>
      <trkpt lat="50.39583" lon="1.55831">
        <ele>2.6</ele>
        <time>2019-10-06T14:44:19Z</time>
      </trkpt>
      <trkpt lat="50.39586" lon="1.55826">
        <ele>2.6</ele>
        <time>2019-10-06T14:44:21Z</time>
      </trkpt>
      <trkpt lat="50.3959" lon="1.55819">
        <ele>2.5</ele>
        <time>2019-10-06T14:44:24Z</time>
      </trkpt>
      <trkpt lat="50.39595" lon="1.55813">
        <ele>2.5</ele>
        <time>2019-10-06T14:44:28Z</time>
      </trkpt>
      <trkpt lat="50.39599" lon="1.55809">
        <ele>2.5</ele>
        <time>2019-10-06T14:44:32Z</time>
      </trkpt>
      <trkpt lat="50.39602" lon="1.55804">
        <ele>2.5</ele>
        <time>2019-10-06T14:44:36Z</time>
      </trkpt>
      <trkpt lat="50.39606" lon="1.558">
        <ele>2.5</ele>
        <time>2019-10-06T14:44:39Z</time>
      </trkpt>
      <trkpt lat="50.39609" lon="1.55794">
        <ele>2.5</ele>
        <time>2019-10-06T14:44:43Z</time>
      </trkpt>
      <trkpt lat="50.39613" lon="1.55787">
        <ele>2.5</ele>
        <time>2019-10-06T14:44:47Z</time>
      </trkpt>
      <trkpt lat="50.39617" lon="1.55783">
        <ele>2.5</ele>
        <time>2019-10-06T14:44:50Z</time>
      </trkpt>
      <trkpt lat="50.3962" lon="1.55778">
        <ele>2.5</ele>
        <time>2019-10-06T14:44:53Z</time>
      </trkpt>
      <trkpt lat="50.39623" lon="1.55772">
        <ele>2.5</ele>
        <time>2019-10-06T14:44:57Z</time>
      </trkpt>
      <trkpt lat="50.39626" lon="1.55767">
        <ele>2.5</ele>
        <time>2019-10-06T14:45:01Z</time>
      </trkpt>
      <trkpt lat="50.39626" lon="1.55759">
        <ele>2.5</ele>
        <time>2019-10-06T14:45:11Z</time>
      </trkpt>
      <trkpt lat="50.39629" lon="1.55753">
        <ele>2.5</ele>
        <time>2019-10-06T14:45:17Z</time>
      </trkpt>
      <trkpt lat="50.39633" lon="1.55747">
        <ele>2.5</ele>
        <time>2019-10-06T14:45:22Z</time>
      </trkpt>
      <trkpt lat="50.39637" lon="1.55742">
        <ele>2.5</ele>
        <time>2019-10-06T14:45:27Z</time>
      </trkpt>
      <trkpt lat="50.39642" lon="1.55739">
        <ele>2.5</ele>
        <time>2019-10-06T14:45:45Z</time>
      </trkpt>
      <trkpt lat="50.39645" lon="1.55734">
        <ele>2.5</ele>
        <time>2019-10-06T14:45:49Z</time>
      </trkpt>
      <trkpt lat="50.39648" lon="1.55728">
        <ele>2.5</ele>
        <time>2019-10-06T14:45:52Z</time>
      </trkpt>
      <trkpt lat="50.39651" lon="1.55721">
        <ele>2.5</ele>
        <time>2019-10-06T14:45:55Z</time>
      </trkpt>
      <trkpt lat="50.39655" lon="1.55714">
        <ele>2.5</ele>
        <time>2019-10-06T14:45:59Z</time>
      </trkpt>
      <trkpt lat="50.39658" lon="1.55709">
        <ele>2.5</ele>
        <time>2019-10-06T14:46:04Z</time>
      </trkpt>
      <trkpt lat="50.39662" lon="1.55704">
        <ele>2.5</ele>
        <time>2019-10-06T14:46:09Z</time>
      </trkpt>
      <trkpt lat="50.39666" lon="1.55699">
        <ele>2.5</ele>
        <time>2019-10-06T14:46:14Z</time>
      </trkpt>
      <trkpt lat="50.39671" lon="1.55694">
        <ele>2.5</ele>
        <time>2019-10-06T14:46:19Z</time>
      </trkpt>
      <trkpt lat="50.39675" lon="1.5569">
        <ele>2.5</ele>
        <time>2019-10-06T14:46:23Z</time>
      </trkpt>
      <trkpt lat="50.39679" lon="1.55685">
        <ele>2.5</ele>
        <time>2019-10-06T14:46:28Z</time>
      </trkpt>
      <trkpt lat="50.39682" lon="1.55679">
        <ele>2.5</ele>
        <time>2019-10-06T14:46:33Z</time>
      </trkpt>
      <trkpt lat="50.39686" lon="1.55675">
        <ele>2.5</ele>
        <time>2019-10-06T14:46:39Z</time>
      </trkpt>
      <trkpt lat="50.39684" lon="1.55682">
        <ele>2.5</ele>
        <time>2019-10-06T14:47:51Z</time>
      </trkpt>
      <trkpt lat="50.39688" lon="1.55683">
        <ele>3.8</ele>
        <time>2019-10-06T14:48:41Z</time>
      </trkpt>
      <trkpt lat="50.3969" lon="1.55676">
        <ele>4.3</ele>
        <time>2019-10-06T14:48:49Z</time>
      </trkpt>
      <trkpt lat="50.39694" lon="1.5567">
        <ele>4.4</ele>
        <time>2019-10-06T14:48:58Z</time>
      </trkpt>
      <trkpt lat="50.39698" lon="1.55673">
        <ele>5</ele>
        <time>2019-10-06T14:49:20Z</time>
      </trkpt>
      <trkpt lat="50.39703" lon="1.5567">
        <ele>6.4</ele>
        <time>2019-10-06T14:50:04Z</time>
      </trkpt>
      <trkpt lat="50.39705" lon="1.55664">
        <ele>6.6</ele>
        <time>2019-10-06T14:50:07Z</time>
      </trkpt>
      <trkpt lat="50.39708" lon="1.55655">
        <ele>6.7</ele>
        <time>2019-10-06T14:50:10Z</time>
      </trkpt>
      <trkpt lat="50.3971" lon="1.55647">
        <ele>6.9</ele>
        <time>2019-10-06T14:50:14Z</time>
      </trkpt>
      <trkpt lat="50.39712" lon="1.55641">
        <ele>7.2</ele>
        <time>2019-10-06T14:50:19Z</time>
      </trkpt>
      <trkpt lat="50.39717" lon="1.55638">
        <ele>7.7</ele>
        <time>2019-10-06T14:50:24Z</time>
      </trkpt>
      <trkpt lat="50.39722" lon="1.55636">
        <ele>8.7</ele>
        <time>2019-10-06T14:50:30Z</time>
      </trkpt>
      <trkpt lat="50.39727" lon="1.55635">
        <ele>9.3</ele>
        <time>2019-10-06T14:50:34Z</time>
      </trkpt>
      <trkpt lat="50.39732" lon="1.55633">
        <ele>9.9</ele>
        <time>2019-10-06T14:50:38Z</time>
      </trkpt>
      <trkpt lat="50.39737" lon="1.55631">
        <ele>10.6</ele>
        <time>2019-10-06T14:50:42Z</time>
      </trkpt>
      <trkpt lat="50.39741" lon="1.55631">
        <ele>11.4</ele>
        <time>2019-10-06T14:50:46Z</time>
      </trkpt>
      <trkpt lat="50.39746" lon="1.55629">
        <ele>12</ele>
        <time>2019-10-06T14:50:50Z</time>
      </trkpt>
      <trkpt lat="50.3975" lon="1.55627">
        <ele>12.6</ele>
        <time>2019-10-06T14:50:54Z</time>
      </trkpt>
      <trkpt lat="50.39755" lon="1.55625">
        <ele>13.1</ele>
        <time>2019-10-06T14:50:58Z</time>
      </trkpt>
      <trkpt lat="50.39761" lon="1.55621">
        <ele>13.5</ele>
        <time>2019-10-06T14:51:02Z</time>
      </trkpt>
      <trkpt lat="50.39765" lon="1.5562">
        <ele>13.9</ele>
        <time>2019-10-06T14:51:06Z</time>
      </trkpt>
      <trkpt lat="50.3977" lon="1.55619">
        <ele>14</ele>
        <time>2019-10-06T14:51:11Z</time>
      </trkpt>
      <trkpt lat="50.39776" lon="1.55619">
        <ele>14.1</ele>
        <time>2019-10-06T14:51:16Z</time>
      </trkpt>
      <trkpt lat="50.39781" lon="1.5562">
        <ele>14.1</ele>
        <time>2019-10-06T14:51:21Z</time>
      </trkpt>
      <trkpt lat="50.39785" lon="1.55619">
        <ele>14</ele>
        <time>2019-10-06T14:51:25Z</time>
      </trkpt>
      <trkpt lat="50.39791" lon="1.55618">
        <ele>14</ele>
        <time>2019-10-06T14:51:29Z</time>
      </trkpt>
      <trkpt lat="50.39796" lon="1.55618">
        <ele>14.1</ele>
        <time>2019-10-06T14:51:33Z</time>
      </trkpt>
      <trkpt lat="50.39802" lon="1.55618">
        <ele>14.3</ele>
        <time>2019-10-06T14:51:37Z</time>
      </trkpt>
      <trkpt lat="50.39807" lon="1.55616">
        <ele>14.6</ele>
        <time>2019-10-06T14:51:41Z</time>
      </trkpt>
      <trkpt lat="50.39812" lon="1.55616">
        <ele>15</ele>
        <time>2019-10-06T14:51:46Z</time>
      </trkpt>
      <trkpt lat="50.39817" lon="1.55615">
        <ele>15.4</ele>
        <time>2019-10-06T14:51:51Z</time>
      </trkpt>
      <trkpt lat="50.39822" lon="1.55613">
        <ele>15.8</ele>
        <time>2019-10-06T14:51:55Z</time>
      </trkpt>
      <trkpt lat="50.39826" lon="1.55612">
        <ele>16.3</ele>
        <time>2019-10-06T14:51:59Z</time>
      </trkpt>
      <trkpt lat="50.39831" lon="1.55611">
        <ele>16.9</ele>
        <time>2019-10-06T14:52:04Z</time>
      </trkpt>
      <trkpt lat="50.39837" lon="1.5561">
        <ele>17.4</ele>
        <time>2019-10-06T14:52:09Z</time>
      </trkpt>
      <trkpt lat="50.39841" lon="1.55609">
        <ele>17.7</ele>
        <time>2019-10-06T14:52:13Z</time>
      </trkpt>
      <trkpt lat="50.39846" lon="1.55608">
        <ele>18</ele>
        <time>2019-10-06T14:52:18Z</time>
      </trkpt>
      <trkpt lat="50.39852" lon="1.55609">
        <ele>18.5</ele>
        <time>2019-10-06T14:52:24Z</time>
      </trkpt>
      <trkpt lat="50.39857" lon="1.55607">
        <ele>18.8</ele>
        <time>2019-10-06T14:52:30Z</time>
      </trkpt>
      <trkpt lat="50.39862" lon="1.55605">
        <ele>18.8</ele>
        <time>2019-10-06T14:52:34Z</time>
      </trkpt>
      <trkpt lat="50.39867" lon="1.55603">
        <ele>18.8</ele>
        <time>2019-10-06T14:52:37Z</time>
      </trkpt>
      <trkpt lat="50.39872" lon="1.55603">
        <ele>18.7</ele>
        <time>2019-10-06T14:52:41Z</time>
      </trkpt>
      <trkpt lat="50.39877" lon="1.55602">
        <ele>18.6</ele>
        <time>2019-10-06T14:52:45Z</time>
      </trkpt>
      <trkpt lat="50.39883" lon="1.55602">
        <ele>18.5</ele>
        <time>2019-10-06T14:52:50Z</time>
      </trkpt>
      <trkpt lat="50.39888" lon="1.55602">
        <ele>18.3</ele>
        <time>2019-10-06T14:52:54Z</time>
      </trkpt>
      <trkpt lat="50.39893" lon="1.55602">
        <ele>18.2</ele>
        <time>2019-10-06T14:52:58Z</time>
      </trkpt>
      <trkpt lat="50.39898" lon="1.55602">
        <ele>17.9</ele>
        <time>2019-10-06T14:53:03Z</time>
      </trkpt>
      <trkpt lat="50.39903" lon="1.55601">
        <ele>17.5</ele>
        <time>2019-10-06T14:53:07Z</time>
      </trkpt>
      <trkpt lat="50.39908" lon="1.55601">
        <ele>17</ele>
        <time>2019-10-06T14:53:11Z</time>
      </trkpt>
      <trkpt lat="50.39914" lon="1.556">
        <ele>16.5</ele>
        <time>2019-10-06T14:53:15Z</time>
      </trkpt>
      <trkpt lat="50.39917" lon="1.55596">
        <ele>16</ele>
        <time>2019-10-06T14:53:19Z</time>
      </trkpt>
      <trkpt lat="50.39922" lon="1.55591">
        <ele>15.4</ele>
        <time>2019-10-06T14:53:23Z</time>
      </trkpt>
      <trkpt lat="50.39927" lon="1.55587">
        <ele>14.9</ele>
        <time>2019-10-06T14:53:27Z</time>
      </trkpt>
      <trkpt lat="50.39932" lon="1.55585">
        <ele>14.4</ele>
        <time>2019-10-06T14:53:32Z</time>
      </trkpt>
      <trkpt lat="50.39937" lon="1.55585">
        <ele>14.1</ele>
        <time>2019-10-06T14:53:36Z</time>
      </trkpt>
      <trkpt lat="50.39942" lon="1.55584">
        <ele>13.9</ele>
        <time>2019-10-06T14:53:40Z</time>
      </trkpt>
      <trkpt lat="50.39947" lon="1.55584">
        <ele>13.7</ele>
        <time>2019-10-06T14:53:45Z</time>
      </trkpt>
      <trkpt lat="50.39952" lon="1.55583">
        <ele>13.5</ele>
        <time>2019-10-06T14:53:49Z</time>
      </trkpt>
      <trkpt lat="50.39958" lon="1.55582">
        <ele>13.2</ele>
        <time>2019-10-06T14:53:53Z</time>
      </trkpt>
      <trkpt lat="50.39963" lon="1.55583">
        <ele>13</ele>
        <time>2019-10-06T14:53:57Z</time>
      </trkpt>
      <trkpt lat="50.39969" lon="1.55583">
        <ele>13</ele>
        <time>2019-10-06T14:54:01Z</time>
      </trkpt>
      <trkpt lat="50.39974" lon="1.55584">
        <ele>13</ele>
        <time>2019-10-06T14:54:05Z</time>
      </trkpt>
      <trkpt lat="50.39979" lon="1.55583">
        <ele>13.1</ele>
        <time>2019-10-06T14:54:09Z</time>
      </trkpt>
      <trkpt lat="50.39983" lon="1.55582">
        <ele>13.2</ele>
        <time>2019-10-06T14:54:14Z</time>
      </trkpt>
      <trkpt lat="50.39988" lon="1.5558">
        <ele>13.2</ele>
        <time>2019-10-06T14:54:19Z</time>
      </trkpt>
      <trkpt lat="50.39993" lon="1.55579">
        <ele>13.4</ele>
        <time>2019-10-06T14:54:24Z</time>
      </trkpt>
      <trkpt lat="50.39998" lon="1.5558">
        <ele>13.6</ele>
        <time>2019-10-06T14:54:28Z</time>
      </trkpt>
      <trkpt lat="50.40003" lon="1.5558">
        <ele>13.5</ele>
        <time>2019-10-06T14:54:32Z</time>
      </trkpt>
      <trkpt lat="50.40009" lon="1.5558">
        <ele>13.5</ele>
        <time>2019-10-06T14:54:36Z</time>
      </trkpt>
      <trkpt lat="50.40014" lon="1.5558">
        <ele>13.5</ele>
        <time>2019-10-06T14:54:40Z</time>
      </trkpt>
      <trkpt lat="50.40019" lon="1.5558">
        <ele>13.4</ele>
        <time>2019-10-06T14:54:44Z</time>
      </trkpt>
      <trkpt lat="50.40024" lon="1.5558">
        <ele>13.3</ele>
        <time>2019-10-06T14:54:48Z</time>
      </trkpt>
      <trkpt lat="50.40029" lon="1.5558">
        <ele>13.2</ele>
        <time>2019-10-06T14:54:53Z</time>
      </trkpt>
      <trkpt lat="50.40035" lon="1.5558">
        <ele>12.9</ele>
        <time>2019-10-06T14:54:58Z</time>
      </trkpt>
      <trkpt lat="50.40039" lon="1.55582">
        <ele>12.6</ele>
        <time>2019-10-06T14:55:03Z</time>
      </trkpt>
      <trkpt lat="50.40045" lon="1.55582">
        <ele>11.9</ele>
        <time>2019-10-06T14:55:09Z</time>
      </trkpt>
      <trkpt lat="50.4005" lon="1.55582">
        <ele>11.2</ele>
        <time>2019-10-06T14:55:13Z</time>
      </trkpt>
      <trkpt lat="50.40056" lon="1.55583">
        <ele>10.3</ele>
        <time>2019-10-06T14:55:18Z</time>
      </trkpt>
      <trkpt lat="50.40061" lon="1.55583">
        <ele>9.7</ele>
        <time>2019-10-06T14:55:22Z</time>
      </trkpt>
      <trkpt lat="50.40066" lon="1.55584">
        <ele>8.9</ele>
        <time>2019-10-06T14:55:27Z</time>
      </trkpt>
      <trkpt lat="50.40072" lon="1.55584">
        <ele>8.1</ele>
        <time>2019-10-06T14:55:32Z</time>
      </trkpt>
      <trkpt lat="50.40077" lon="1.55585">
        <ele>7.5</ele>
        <time>2019-10-06T14:55:36Z</time>
      </trkpt>
      <trkpt lat="50.40082" lon="1.55586">
        <ele>7</ele>
        <time>2019-10-06T14:55:40Z</time>
      </trkpt>
      <trkpt lat="50.40088" lon="1.55587">
        <ele>6.7</ele>
        <time>2019-10-06T14:55:45Z</time>
      </trkpt>
      <trkpt lat="50.40092" lon="1.55588">
        <ele>6.5</ele>
        <time>2019-10-06T14:55:50Z</time>
      </trkpt>
      <trkpt lat="50.40098" lon="1.55589">
        <ele>6.3</ele>
        <time>2019-10-06T14:55:55Z</time>
      </trkpt>
      <trkpt lat="50.40103" lon="1.55589">
        <ele>6.1</ele>
        <time>2019-10-06T14:55:59Z</time>
      </trkpt>
      <trkpt lat="50.40108" lon="1.5559">
        <ele>5.8</ele>
        <time>2019-10-06T14:56:03Z</time>
      </trkpt>
      <trkpt lat="50.40113" lon="1.5559">
        <ele>5.7</ele>
        <time>2019-10-06T14:56:07Z</time>
      </trkpt>
      <trkpt lat="50.40118" lon="1.55591">
        <ele>5.7</ele>
        <time>2019-10-06T14:56:11Z</time>
      </trkpt>
      <trkpt lat="50.40123" lon="1.55593">
        <ele>5.6</ele>
        <time>2019-10-06T14:56:16Z</time>
      </trkpt>
      <trkpt lat="50.40128" lon="1.55595">
        <ele>5.5</ele>
        <time>2019-10-06T14:56:21Z</time>
      </trkpt>
      <trkpt lat="50.40133" lon="1.55597">
        <ele>5.3</ele>
        <time>2019-10-06T14:56:25Z</time>
      </trkpt>
      <trkpt lat="50.40137" lon="1.55601">
        <ele>5.1</ele>
        <time>2019-10-06T14:56:29Z</time>
      </trkpt>
      <trkpt lat="50.40142" lon="1.55604">
        <ele>4.8</ele>
        <time>2019-10-06T14:56:33Z</time>
      </trkpt>
      <trkpt lat="50.40147" lon="1.55607">
        <ele>4.6</ele>
        <time>2019-10-06T14:56:38Z</time>
      </trkpt>
      <trkpt lat="50.40152" lon="1.5561">
        <ele>4.3</ele>
        <time>2019-10-06T14:56:42Z</time>
      </trkpt>
      <trkpt lat="50.40157" lon="1.55613">
        <ele>4.1</ele>
        <time>2019-10-06T14:56:46Z</time>
      </trkpt>
      <trkpt lat="50.40161" lon="1.55616">
        <ele>3.8</ele>
        <time>2019-10-06T14:56:50Z</time>
      </trkpt>
      <trkpt lat="50.40166" lon="1.5562">
        <ele>3.6</ele>
        <time>2019-10-06T14:56:55Z</time>
      </trkpt>
      <trkpt lat="50.40171" lon="1.55622">
        <ele>3.6</ele>
        <time>2019-10-06T14:57:01Z</time>
      </trkpt>
      <trkpt lat="50.40177" lon="1.55624">
        <ele>3.5</ele>
        <time>2019-10-06T14:57:06Z</time>
      </trkpt>
      <trkpt lat="50.40182" lon="1.55626">
        <ele>3.4</ele>
        <time>2019-10-06T14:57:10Z</time>
      </trkpt>
      <trkpt lat="50.40186" lon="1.55629">
        <ele>3.3</ele>
        <time>2019-10-06T14:57:14Z</time>
      </trkpt>
      <trkpt lat="50.40191" lon="1.55632">
        <ele>3.2</ele>
        <time>2019-10-06T14:57:18Z</time>
      </trkpt>
      <trkpt lat="50.40196" lon="1.55634">
        <ele>3.1</ele>
        <time>2019-10-06T14:57:22Z</time>
      </trkpt>
      <trkpt lat="50.40201" lon="1.55638">
        <ele>2.9</ele>
        <time>2019-10-06T14:57:26Z</time>
      </trkpt>
      <trkpt lat="50.40205" lon="1.55641">
        <ele>2.7</ele>
        <time>2019-10-06T14:57:30Z</time>
      </trkpt>
      <trkpt lat="50.4021" lon="1.55644">
        <ele>2.6</ele>
        <time>2019-10-06T14:57:35Z</time>
      </trkpt>
      <trkpt lat="50.40214" lon="1.55647">
        <ele>2.5</ele>
        <time>2019-10-06T14:57:41Z</time>
      </trkpt>
      <trkpt lat="50.4022" lon="1.55649">
        <ele>2.5</ele>
        <time>2019-10-06T14:57:48Z</time>
      </trkpt>
      <trkpt lat="50.40224" lon="1.55651">
        <ele>2.5</ele>
        <time>2019-10-06T14:57:52Z</time>
      </trkpt>
      <trkpt lat="50.40229" lon="1.55652">
        <ele>2.5</ele>
        <time>2019-10-06T14:57:56Z</time>
      </trkpt>
      <trkpt lat="50.40235" lon="1.55655">
        <ele>2.5</ele>
        <time>2019-10-06T14:58:00Z</time>
      </trkpt>
      <trkpt lat="50.4024" lon="1.55657">
        <ele>2.5</ele>
        <time>2019-10-06T14:58:04Z</time>
      </trkpt>
      <trkpt lat="50.40245" lon="1.5566">
        <ele>2.7</ele>
        <time>2019-10-06T14:58:08Z</time>
      </trkpt>
      <trkpt lat="50.4025" lon="1.55664">
        <ele>2.9</ele>
        <time>2019-10-06T14:58:12Z</time>
      </trkpt>
      <trkpt lat="50.40255" lon="1.55666">
        <ele>3.3</ele>
        <time>2019-10-06T14:58:16Z</time>
      </trkpt>
      <trkpt lat="50.4026" lon="1.55668">
        <ele>3.9</ele>
        <time>2019-10-06T14:58:21Z</time>
      </trkpt>
      <trkpt lat="50.40264" lon="1.55671">
        <ele>4.4</ele>
        <time>2019-10-06T14:58:25Z</time>
      </trkpt>
      <trkpt lat="50.40268" lon="1.55674">
        <ele>5.1</ele>
        <time>2019-10-06T14:58:30Z</time>
      </trkpt>
      <trkpt lat="50.40273" lon="1.55677">
        <ele>5.7</ele>
        <time>2019-10-06T14:58:34Z</time>
      </trkpt>
      <trkpt lat="50.40276" lon="1.55681">
        <ele>6.1</ele>
        <time>2019-10-06T14:58:38Z</time>
      </trkpt>
      <trkpt lat="50.4028" lon="1.55686">
        <ele>6.5</ele>
        <time>2019-10-06T14:58:42Z</time>
      </trkpt>
      <trkpt lat="50.40284" lon="1.55691">
        <ele>7</ele>
        <time>2019-10-06T14:58:46Z</time>
      </trkpt>
      <trkpt lat="50.40288" lon="1.55696">
        <ele>7.3</ele>
        <time>2019-10-06T14:58:50Z</time>
      </trkpt>
      <trkpt lat="50.40291" lon="1.55702">
        <ele>7.6</ele>
        <time>2019-10-06T14:58:55Z</time>
      </trkpt>
      <trkpt lat="50.40295" lon="1.55708">
        <ele>8</ele>
        <time>2019-10-06T14:59:00Z</time>
      </trkpt>
      <trkpt lat="50.40298" lon="1.55714">
        <ele>8.4</ele>
        <time>2019-10-06T14:59:06Z</time>
      </trkpt>
      <trkpt lat="50.403" lon="1.55721">
        <ele>8.9</ele>
        <time>2019-10-06T14:59:12Z</time>
      </trkpt>
      <trkpt lat="50.40303" lon="1.55728">
        <ele>9.5</ele>
        <time>2019-10-06T14:59:17Z</time>
      </trkpt>
      <trkpt lat="50.40306" lon="1.55735">
        <ele>9.8</ele>
        <time>2019-10-06T14:59:22Z</time>
      </trkpt>
      <trkpt lat="50.40309" lon="1.5574">
        <ele>9.8</ele>
        <time>2019-10-06T14:59:27Z</time>
      </trkpt>
      <trkpt lat="50.40312" lon="1.55746">
        <ele>9.5</ele>
        <time>2019-10-06T14:59:36Z</time>
      </trkpt>
      <trkpt lat="50.40315" lon="1.5575">
        <ele>8.9</ele>
        <time>2019-10-06T15:00:02Z</time>
      </trkpt>
      <trkpt lat="50.40318" lon="1.55745">
        <ele>8.7</ele>
        <time>2019-10-06T15:00:26Z</time>
      </trkpt>
      <trkpt lat="50.40314" lon="1.55746">
        <ele>9.8</ele>
        <time>2019-10-06T15:00:59Z</time>
      </trkpt>
      <trkpt lat="50.40318" lon="1.55749">
        <ele>8.7</ele>
        <time>2019-10-06T15:01:45Z</time>
      </trkpt>
      <trkpt lat="50.40322" lon="1.55744">
        <ele>7.8</ele>
        <time>2019-10-06T15:02:08Z</time>
      </trkpt>
      <trkpt lat="50.40319" lon="1.5575">
        <ele>7</ele>
        <time>2019-10-06T15:04:11Z</time>
      </trkpt>
      <trkpt lat="50.40319" lon="1.55743">
        <ele>7.8</ele>
        <time>2019-10-06T15:04:38Z</time>
      </trkpt>
      <trkpt lat="50.40322" lon="1.55748">
        <ele>8.4</ele>
        <time>2019-10-06T15:05:19Z</time>
      </trkpt>
      <trkpt lat="50.40322" lon="1.55756">
        <ele>9</ele>
        <time>2019-10-06T15:05:27Z</time>
      </trkpt>
      <trkpt lat="50.40323" lon="1.55763">
        <ele>9.6</ele>
        <time>2019-10-06T15:05:33Z</time>
      </trkpt>
      <trkpt lat="50.4032" lon="1.55769">
        <ele>9.5</ele>
        <time>2019-10-06T15:05:50Z</time>
      </trkpt>
      <trkpt lat="50.40317" lon="1.55776">
        <ele>8.7</ele>
        <time>2019-10-06T15:05:56Z</time>
      </trkpt>
      <trkpt lat="50.40313" lon="1.5578">
        <ele>8.3</ele>
        <time>2019-10-06T15:06:00Z</time>
      </trkpt>
      <trkpt lat="50.40309" lon="1.55785">
        <ele>8</ele>
        <time>2019-10-06T15:06:04Z</time>
      </trkpt>
      <trkpt lat="50.40306" lon="1.55793">
        <ele>8</ele>
        <time>2019-10-06T15:06:08Z</time>
      </trkpt>
      <trkpt lat="50.40303" lon="1.55799">
        <ele>8.3</ele>
        <time>2019-10-06T15:06:12Z</time>
      </trkpt>
      <trkpt lat="50.40301" lon="1.55807">
        <ele>8.6</ele>
        <time>2019-10-06T15:06:16Z</time>
      </trkpt>
      <trkpt lat="50.40298" lon="1.55814">
        <ele>9</ele>
        <time>2019-10-06T15:06:20Z</time>
      </trkpt>
      <trkpt lat="50.40294" lon="1.55821">
        <ele>9.3</ele>
        <time>2019-10-06T15:06:24Z</time>
      </trkpt>
      <trkpt lat="50.40291" lon="1.55826">
        <ele>9.3</ele>
        <time>2019-10-06T15:06:28Z</time>
      </trkpt>
      <trkpt lat="50.40288" lon="1.55831">
        <ele>9.3</ele>
        <time>2019-10-06T15:06:32Z</time>
      </trkpt>
      <trkpt lat="50.40285" lon="1.55838">
        <ele>9.2</ele>
        <time>2019-10-06T15:06:37Z</time>
      </trkpt>
      <trkpt lat="50.40282" lon="1.55846">
        <ele>9.3</ele>
        <time>2019-10-06T15:06:41Z</time>
      </trkpt>
      <trkpt lat="50.4028" lon="1.55852">
        <ele>9.6</ele>
        <time>2019-10-06T15:06:46Z</time>
      </trkpt>
      <trkpt lat="50.40277" lon="1.5586">
        <ele>10</ele>
        <time>2019-10-06T15:06:51Z</time>
      </trkpt>
      <trkpt lat="50.40275" lon="1.55868">
        <ele>10.3</ele>
        <time>2019-10-06T15:06:55Z</time>
      </trkpt>
      <trkpt lat="50.40273" lon="1.55875">
        <ele>10.6</ele>
        <time>2019-10-06T15:06:59Z</time>
      </trkpt>
      <trkpt lat="50.40271" lon="1.55882">
        <ele>10.9</ele>
        <time>2019-10-06T15:07:04Z</time>
      </trkpt>
      <trkpt lat="50.40268" lon="1.5589">
        <ele>11.1</ele>
        <time>2019-10-06T15:07:09Z</time>
      </trkpt>
      <trkpt lat="50.40265" lon="1.55896">
        <ele>11.2</ele>
        <time>2019-10-06T15:07:13Z</time>
      </trkpt>
      <trkpt lat="50.40263" lon="1.55904">
        <ele>11.3</ele>
        <time>2019-10-06T15:07:18Z</time>
      </trkpt>
      <trkpt lat="50.40259" lon="1.55911">
        <ele>11.2</ele>
        <time>2019-10-06T15:07:23Z</time>
      </trkpt>
      <trkpt lat="50.40256" lon="1.55916">
        <ele>11.1</ele>
        <time>2019-10-06T15:07:31Z</time>
      </trkpt>
      <trkpt lat="50.40252" lon="1.55922">
        <ele>10.7</ele>
        <time>2019-10-06T15:07:42Z</time>
      </trkpt>
      <trkpt lat="50.40251" lon="1.55928">
        <ele>10.6</ele>
        <time>2019-10-06T15:07:46Z</time>
      </trkpt>
      <trkpt lat="50.4025" lon="1.55936">
        <ele>10.6</ele>
        <time>2019-10-06T15:07:51Z</time>
      </trkpt>
      <trkpt lat="50.40246" lon="1.55943">
        <ele>10.8</ele>
        <time>2019-10-06T15:07:56Z</time>
      </trkpt>
      <trkpt lat="50.40243" lon="1.55948">
        <ele>10.9</ele>
        <time>2019-10-06T15:08:01Z</time>
      </trkpt>
      <trkpt lat="50.4024" lon="1.55955">
        <ele>11</ele>
        <time>2019-10-06T15:08:06Z</time>
      </trkpt>
      <trkpt lat="50.40237" lon="1.55963">
        <ele>10.9</ele>
        <time>2019-10-06T15:08:10Z</time>
      </trkpt>
      <trkpt lat="50.40234" lon="1.55969">
        <ele>10.6</ele>
        <time>2019-10-06T15:08:13Z</time>
      </trkpt>
      <trkpt lat="50.40231" lon="1.55976">
        <ele>10.1</ele>
        <time>2019-10-06T15:08:17Z</time>
      </trkpt>
      <trkpt lat="50.40229" lon="1.55983">
        <ele>9.4</ele>
        <time>2019-10-06T15:08:22Z</time>
      </trkpt>
      <trkpt lat="50.40226" lon="1.5599">
        <ele>8.8</ele>
        <time>2019-10-06T15:08:27Z</time>
      </trkpt>
      <trkpt lat="50.40224" lon="1.55996">
        <ele>8.6</ele>
        <time>2019-10-06T15:08:31Z</time>
      </trkpt>
      <trkpt lat="50.40221" lon="1.56002">
        <ele>8.5</ele>
        <time>2019-10-06T15:08:37Z</time>
      </trkpt>
      <trkpt lat="50.40219" lon="1.56009">
        <ele>8.5</ele>
        <time>2019-10-06T15:08:43Z</time>
      </trkpt>
      <trkpt lat="50.40216" lon="1.56016">
        <ele>8.7</ele>
        <time>2019-10-06T15:08:49Z</time>
      </trkpt>
      <trkpt lat="50.40214" lon="1.56022">
        <ele>8.9</ele>
        <time>2019-10-06T15:08:54Z</time>
      </trkpt>
      <trkpt lat="50.40211" lon="1.56029">
        <ele>9.1</ele>
        <time>2019-10-06T15:08:58Z</time>
      </trkpt>
      <trkpt lat="50.40208" lon="1.56035">
        <ele>9.3</ele>
        <time>2019-10-06T15:09:03Z</time>
      </trkpt>
      <trkpt lat="50.40204" lon="1.5604">
        <ele>9.6</ele>
        <time>2019-10-06T15:09:09Z</time>
      </trkpt>
      <trkpt lat="50.402" lon="1.56043">
        <ele>9.7</ele>
        <time>2019-10-06T15:09:14Z</time>
      </trkpt>
      <trkpt lat="50.40195" lon="1.56046">
        <ele>9.7</ele>
        <time>2019-10-06T15:09:18Z</time>
      </trkpt>
      <trkpt lat="50.40191" lon="1.56049">
        <ele>9.3</ele>
        <time>2019-10-06T15:09:24Z</time>
      </trkpt>
      <trkpt lat="50.40187" lon="1.56055">
        <ele>9</ele>
        <time>2019-10-06T15:09:30Z</time>
      </trkpt>
      <trkpt lat="50.40185" lon="1.56061">
        <ele>8.8</ele>
        <time>2019-10-06T15:09:35Z</time>
      </trkpt>
      <trkpt lat="50.40182" lon="1.56068">
        <ele>8.2</ele>
        <time>2019-10-06T15:09:42Z</time>
      </trkpt>
      <trkpt lat="50.4018" lon="1.56075">
        <ele>7.2</ele>
        <time>2019-10-06T15:09:47Z</time>
      </trkpt>
      <trkpt lat="50.40179" lon="1.56083">
        <ele>6.4</ele>
        <time>2019-10-06T15:09:51Z</time>
      </trkpt>
      <trkpt lat="50.40176" lon="1.5609">
        <ele>5.4</ele>
        <time>2019-10-06T15:09:56Z</time>
      </trkpt>
      <trkpt lat="50.40173" lon="1.56097">
        <ele>4.7</ele>
        <time>2019-10-06T15:10:00Z</time>
      </trkpt>
      <trkpt lat="50.4017" lon="1.56103">
        <ele>4.2</ele>
        <time>2019-10-06T15:10:03Z</time>
      </trkpt>
      <trkpt lat="50.40167" lon="1.56109">
        <ele>3.7</ele>
        <time>2019-10-06T15:10:06Z</time>
      </trkpt>
      <trkpt lat="50.40164" lon="1.56116">
        <ele>3.1</ele>
        <time>2019-10-06T15:10:10Z</time>
      </trkpt>
      <trkpt lat="50.40162" lon="1.56123">
        <ele>2.8</ele>
        <time>2019-10-06T15:10:14Z</time>
      </trkpt>
      <trkpt lat="50.40159" lon="1.5613">
        <ele>2.7</ele>
        <time>2019-10-06T15:10:18Z</time>
      </trkpt>
      <trkpt lat="50.40156" lon="1.56136">
        <ele>2.6</ele>
        <time>2019-10-06T15:10:22Z</time>
      </trkpt>
      <trkpt lat="50.40152" lon="1.56142">
        <ele>2.5</ele>
        <time>2019-10-06T15:10:26Z</time>
      </trkpt>
      <trkpt lat="50.40149" lon="1.56148">
        <ele>2.5</ele>
        <time>2019-10-06T15:10:31Z</time>
      </trkpt>
      <trkpt lat="50.40146" lon="1.56155">
        <ele>2.5</ele>
        <time>2019-10-06T15:10:36Z</time>
      </trkpt>
      <trkpt lat="50.40143" lon="1.56161">
        <ele>2.5</ele>
        <time>2019-10-06T15:10:40Z</time>
      </trkpt>
      <trkpt lat="50.40139" lon="1.56168">
        <ele>2.5</ele>
        <time>2019-10-06T15:10:45Z</time>
      </trkpt>
      <trkpt lat="50.40137" lon="1.56176">
        <ele>2.5</ele>
        <time>2019-10-06T15:10:49Z</time>
      </trkpt>
      <trkpt lat="50.40135" lon="1.56181">
        <ele>2.5</ele>
        <time>2019-10-06T15:10:53Z</time>
      </trkpt>
      <trkpt lat="50.4013" lon="1.56185">
        <ele>2.5</ele>
        <time>2019-10-06T15:10:59Z</time>
      </trkpt>
      <trkpt lat="50.40127" lon="1.56191">
        <ele>2.5</ele>
        <time>2019-10-06T15:11:04Z</time>
      </trkpt>
      <trkpt lat="50.40125" lon="1.56197">
        <ele>2.5</ele>
        <time>2019-10-06T15:11:08Z</time>
      </trkpt>
      <trkpt lat="50.40123" lon="1.56204">
        <ele>2.5</ele>
        <time>2019-10-06T15:11:12Z</time>
      </trkpt>
      <trkpt lat="50.4012" lon="1.56211">
        <ele>2.5</ele>
        <time>2019-10-06T15:11:16Z</time>
      </trkpt>
      <trkpt lat="50.40118" lon="1.56219">
        <ele>2.5</ele>
        <time>2019-10-06T15:11:20Z</time>
      </trkpt>
      <trkpt lat="50.40115" lon="1.56225">
        <ele>2.5</ele>
        <time>2019-10-06T15:11:24Z</time>
      </trkpt>
      <trkpt lat="50.40113" lon="1.56231">
        <ele>2.5</ele>
        <time>2019-10-06T15:11:29Z</time>
      </trkpt>
      <trkpt lat="50.40111" lon="1.56237">
        <ele>2.5</ele>
        <time>2019-10-06T15:11:34Z</time>
      </trkpt>
      <trkpt lat="50.40108" lon="1.56244">
        <ele>2.5</ele>
        <time>2019-10-06T15:11:39Z</time>
      </trkpt>
      <trkpt lat="50.40105" lon="1.56251">
        <ele>2.5</ele>
        <time>2019-10-06T15:11:44Z</time>
      </trkpt>
      <trkpt lat="50.40102" lon="1.56257">
        <ele>2.5</ele>
        <time>2019-10-06T15:11:48Z</time>
      </trkpt>
      <trkpt lat="50.40099" lon="1.56264">
        <ele>2.5</ele>
        <time>2019-10-06T15:11:52Z</time>
      </trkpt>
      <trkpt lat="50.40097" lon="1.56271">
        <ele>2.5</ele>
        <time>2019-10-06T15:11:55Z</time>
      </trkpt>
      <trkpt lat="50.40095" lon="1.56278">
        <ele>2.5</ele>
        <time>2019-10-06T15:11:59Z</time>
      </trkpt>
      <trkpt lat="50.40092" lon="1.56286">
        <ele>2.5</ele>
        <time>2019-10-06T15:12:03Z</time>
      </trkpt>
      <trkpt lat="50.40089" lon="1.56293">
        <ele>2.6</ele>
        <time>2019-10-06T15:12:07Z</time>
      </trkpt>
      <trkpt lat="50.40086" lon="1.56299">
        <ele>2.7</ele>
        <time>2019-10-06T15:12:10Z</time>
      </trkpt>
      <trkpt lat="50.40083" lon="1.56305">
        <ele>2.9</ele>
        <time>2019-10-06T15:12:13Z</time>
      </trkpt>
      <trkpt lat="50.4008" lon="1.56311">
        <ele>3</ele>
        <time>2019-10-06T15:12:16Z</time>
      </trkpt>
      <trkpt lat="50.40077" lon="1.56318">
        <ele>3.1</ele>
        <time>2019-10-06T15:12:20Z</time>
      </trkpt>
      <trkpt lat="50.40073" lon="1.56323">
        <ele>3.3</ele>
        <time>2019-10-06T15:12:24Z</time>
      </trkpt>
      <trkpt lat="50.40069" lon="1.5633">
        <ele>3.5</ele>
        <time>2019-10-06T15:12:28Z</time>
      </trkpt>
      <trkpt lat="50.40067" lon="1.56337">
        <ele>3.6</ele>
        <time>2019-10-06T15:12:32Z</time>
      </trkpt>
      <trkpt lat="50.40064" lon="1.56345">
        <ele>3.6</ele>
        <time>2019-10-06T15:12:37Z</time>
      </trkpt>
      <trkpt lat="50.40061" lon="1.56352">
        <ele>3.7</ele>
        <time>2019-10-06T15:12:41Z</time>
      </trkpt>
      <trkpt lat="50.40058" lon="1.56358">
        <ele>3.7</ele>
        <time>2019-10-06T15:12:44Z</time>
      </trkpt>
      <trkpt lat="50.40054" lon="1.56364">
        <ele>3.6</ele>
        <time>2019-10-06T15:12:48Z</time>
      </trkpt>
      <trkpt lat="50.40051" lon="1.56372">
        <ele>3.7</ele>
        <time>2019-10-06T15:12:53Z</time>
      </trkpt>
      <trkpt lat="50.40048" lon="1.56378">
        <ele>3.8</ele>
        <time>2019-10-06T15:12:58Z</time>
      </trkpt>
      <trkpt lat="50.40046" lon="1.56386">
        <ele>4.4</ele>
        <time>2019-10-06T15:13:03Z</time>
      </trkpt>
      <trkpt lat="50.40044" lon="1.56393">
        <ele>5.3</ele>
        <time>2019-10-06T15:13:08Z</time>
      </trkpt>
      <trkpt lat="50.40041" lon="1.56401">
        <ele>6.1</ele>
        <time>2019-10-06T15:13:12Z</time>
      </trkpt>
      <trkpt lat="50.40038" lon="1.56408">
        <ele>6.8</ele>
        <time>2019-10-06T15:13:15Z</time>
      </trkpt>
      <trkpt lat="50.40037" lon="1.56416">
        <ele>7.5</ele>
        <time>2019-10-06T15:13:18Z</time>
      </trkpt>
      <trkpt lat="50.40034" lon="1.5644">
        <ele>11.7</ele>
        <time>2019-10-06T15:13:30Z</time>
      </trkpt>
      <trkpt lat="50.4003" lon="1.56446">
        <ele>12.1</ele>
        <time>2019-10-06T15:13:34Z</time>
      </trkpt>
      <trkpt lat="50.40026" lon="1.5645">
        <ele>12.4</ele>
        <time>2019-10-06T15:13:38Z</time>
      </trkpt>
      <trkpt lat="50.40022" lon="1.56454">
        <ele>12.5</ele>
        <time>2019-10-06T15:13:43Z</time>
      </trkpt>
      <trkpt lat="50.40019" lon="1.5646">
        <ele>12.3</ele>
        <time>2019-10-06T15:13:49Z</time>
      </trkpt>
      <trkpt lat="50.40017" lon="1.56468">
        <ele>12.2</ele>
        <time>2019-10-06T15:13:54Z</time>
      </trkpt>
      <trkpt lat="50.40015" lon="1.56475">
        <ele>12</ele>
        <time>2019-10-06T15:13:58Z</time>
      </trkpt>
      <trkpt lat="50.40012" lon="1.56482">
        <ele>11.9</ele>
        <time>2019-10-06T15:14:02Z</time>
      </trkpt>
      <trkpt lat="50.40009" lon="1.5649">
        <ele>11.9</ele>
        <time>2019-10-06T15:14:06Z</time>
      </trkpt>
      <trkpt lat="50.40007" lon="1.56496">
        <ele>11.8</ele>
        <time>2019-10-06T15:14:10Z</time>
      </trkpt>
      <trkpt lat="50.40005" lon="1.56502">
        <ele>11.8</ele>
        <time>2019-10-06T15:14:14Z</time>
      </trkpt>
      <trkpt lat="50.40002" lon="1.56509">
        <ele>11.6</ele>
        <time>2019-10-06T15:14:19Z</time>
      </trkpt>
      <trkpt lat="50.39998" lon="1.56516">
        <ele>11.5</ele>
        <time>2019-10-06T15:14:24Z</time>
      </trkpt>
      <trkpt lat="50.39995" lon="1.56523">
        <ele>11.4</ele>
        <time>2019-10-06T15:14:28Z</time>
      </trkpt>
      <trkpt lat="50.39992" lon="1.56529">
        <ele>11.4</ele>
        <time>2019-10-06T15:14:32Z</time>
      </trkpt>
      <trkpt lat="50.39989" lon="1.56535">
        <ele>11.4</ele>
        <time>2019-10-06T15:14:36Z</time>
      </trkpt>
      <trkpt lat="50.39986" lon="1.56542">
        <ele>11.4</ele>
        <time>2019-10-06T15:14:41Z</time>
      </trkpt>
      <trkpt lat="50.39983" lon="1.56547">
        <ele>11.1</ele>
        <time>2019-10-06T15:14:45Z</time>
      </trkpt>
      <trkpt lat="50.3998" lon="1.56553">
        <ele>10.8</ele>
        <time>2019-10-06T15:14:50Z</time>
      </trkpt>
      <trkpt lat="50.39977" lon="1.56558">
        <ele>10.5</ele>
        <time>2019-10-06T15:14:54Z</time>
      </trkpt>
      <trkpt lat="50.39975" lon="1.56565">
        <ele>10.1</ele>
        <time>2019-10-06T15:14:58Z</time>
      </trkpt>
      <trkpt lat="50.39972" lon="1.56572">
        <ele>9.6</ele>
        <time>2019-10-06T15:15:03Z</time>
      </trkpt>
      <trkpt lat="50.3997" lon="1.56579">
        <ele>9.3</ele>
        <time>2019-10-06T15:15:08Z</time>
      </trkpt>
      <trkpt lat="50.39966" lon="1.56585">
        <ele>9.2</ele>
        <time>2019-10-06T15:15:12Z</time>
      </trkpt>
      <trkpt lat="50.39963" lon="1.56592">
        <ele>9</ele>
        <time>2019-10-06T15:15:17Z</time>
      </trkpt>
      <trkpt lat="50.3996" lon="1.56598">
        <ele>8.8</ele>
        <time>2019-10-06T15:15:21Z</time>
      </trkpt>
      <trkpt lat="50.39958" lon="1.56605">
        <ele>8.5</ele>
        <time>2019-10-06T15:15:25Z</time>
      </trkpt>
      <trkpt lat="50.39956" lon="1.56611">
        <ele>8.2</ele>
        <time>2019-10-06T15:15:29Z</time>
      </trkpt>
      <trkpt lat="50.39954" lon="1.56619">
        <ele>7.9</ele>
        <time>2019-10-06T15:15:33Z</time>
      </trkpt>
      <trkpt lat="50.39953" lon="1.56627">
        <ele>7.6</ele>
        <time>2019-10-06T15:15:37Z</time>
      </trkpt>
      <trkpt lat="50.39951" lon="1.56635">
        <ele>7.2</ele>
        <time>2019-10-06T15:15:42Z</time>
      </trkpt>
      <trkpt lat="50.39948" lon="1.56642">
        <ele>6.7</ele>
        <time>2019-10-06T15:15:46Z</time>
      </trkpt>
      <trkpt lat="50.39945" lon="1.56649">
        <ele>6.2</ele>
        <time>2019-10-06T15:15:50Z</time>
      </trkpt>
      <trkpt lat="50.39942" lon="1.56655">
        <ele>5.7</ele>
        <time>2019-10-06T15:15:53Z</time>
      </trkpt>
      <trkpt lat="50.39939" lon="1.56662">
        <ele>5.5</ele>
        <time>2019-10-06T15:15:56Z</time>
      </trkpt>
      <trkpt lat="50.39935" lon="1.56667">
        <ele>5.1</ele>
        <time>2019-10-06T15:16:00Z</time>
      </trkpt>
      <trkpt lat="50.39933" lon="1.56675">
        <ele>4.7</ele>
        <time>2019-10-06T15:16:05Z</time>
      </trkpt>
      <trkpt lat="50.3993" lon="1.56681">
        <ele>4.5</ele>
        <time>2019-10-06T15:16:10Z</time>
      </trkpt>
      <trkpt lat="50.39927" lon="1.56689">
        <ele>4.5</ele>
        <time>2019-10-06T15:16:15Z</time>
      </trkpt>
      <trkpt lat="50.39923" lon="1.56696">
        <ele>4.5</ele>
        <time>2019-10-06T15:16:20Z</time>
      </trkpt>
      <trkpt lat="50.39921" lon="1.56703">
        <ele>4.6</ele>
        <time>2019-10-06T15:16:24Z</time>
      </trkpt>
      <trkpt lat="50.39918" lon="1.5671">
        <ele>4.5</ele>
        <time>2019-10-06T15:16:29Z</time>
      </trkpt>
      <trkpt lat="50.39915" lon="1.56716">
        <ele>4.5</ele>
        <time>2019-10-06T15:16:33Z</time>
      </trkpt>
      <trkpt lat="50.39913" lon="1.56725">
        <ele>4.3</ele>
        <time>2019-10-06T15:16:37Z</time>
      </trkpt>
      <trkpt lat="50.39911" lon="1.56732">
        <ele>4.1</ele>
        <time>2019-10-06T15:16:40Z</time>
      </trkpt>
      <trkpt lat="50.39908" lon="1.56739">
        <ele>3.8</ele>
        <time>2019-10-06T15:16:45Z</time>
      </trkpt>
      <trkpt lat="50.39905" lon="1.56744">
        <ele>3.6</ele>
        <time>2019-10-06T15:16:49Z</time>
      </trkpt>
      <trkpt lat="50.39902" lon="1.5675">
        <ele>3.5</ele>
        <time>2019-10-06T15:16:54Z</time>
      </trkpt>
      <trkpt lat="50.39899" lon="1.56757">
        <ele>3.2</ele>
        <time>2019-10-06T15:16:59Z</time>
      </trkpt>
      <trkpt lat="50.39896" lon="1.56762">
        <ele>2.9</ele>
        <time>2019-10-06T15:17:03Z</time>
      </trkpt>
      <trkpt lat="50.39893" lon="1.56768">
        <ele>2.6</ele>
        <time>2019-10-06T15:17:09Z</time>
      </trkpt>
      <trkpt lat="50.39889" lon="1.56774">
        <ele>2.6</ele>
        <time>2019-10-06T15:17:13Z</time>
      </trkpt>
      <trkpt lat="50.39887" lon="1.5678">
        <ele>2.5</ele>
        <time>2019-10-06T15:17:18Z</time>
      </trkpt>
      <trkpt lat="50.39884" lon="1.56787">
        <ele>2.5</ele>
        <time>2019-10-06T15:17:24Z</time>
      </trkpt>
      <trkpt lat="50.39882" lon="1.56797">
        <ele>2.5</ele>
        <time>2019-10-06T15:17:27Z</time>
      </trkpt>
      <trkpt lat="50.39881" lon="1.56804">
        <ele>2.5</ele>
        <time>2019-10-06T15:17:30Z</time>
      </trkpt>
      <trkpt lat="50.39879" lon="1.56811">
        <ele>2.5</ele>
        <time>2019-10-06T15:17:34Z</time>
      </trkpt>
      <trkpt lat="50.39879" lon="1.5682">
        <ele>2.5</ele>
        <time>2019-10-06T15:17:38Z</time>
      </trkpt>
      <trkpt lat="50.3988" lon="1.56827">
        <ele>2.5</ele>
        <time>2019-10-06T15:17:43Z</time>
      </trkpt>
      <trkpt lat="50.39882" lon="1.56835">
        <ele>2.5</ele>
        <time>2019-10-06T15:17:48Z</time>
      </trkpt>
      <trkpt lat="50.39883" lon="1.56843">
        <ele>2.8</ele>
        <time>2019-10-06T15:17:55Z</time>
      </trkpt>
      <trkpt lat="50.39886" lon="1.56849">
        <ele>3.6</ele>
        <time>2019-10-06T15:18:08Z</time>
      </trkpt>
      <trkpt lat="50.39888" lon="1.56862">
        <ele>3.3</ele>
        <time>2019-10-06T15:19:14Z</time>
      </trkpt>
      <trkpt lat="50.39891" lon="1.56857">
        <ele>5.1</ele>
        <time>2019-10-06T15:19:23Z</time>
      </trkpt>
      <trkpt lat="50.39899" lon="1.5682">
        <ele>6.7</ele>
        <time>2019-10-06T15:19:42Z</time>
      </trkpt>
      <trkpt lat="50.39911" lon="1.56815">
        <ele>2.5</ele>
        <time>2019-10-06T15:20:56Z</time>
      </trkpt>
      <trkpt lat="50.39907" lon="1.56819">
        <ele>2.5</ele>
        <time>2019-10-06T15:21:02Z</time>
      </trkpt>
      <trkpt lat="50.39891" lon="1.5685">
        <ele>2.5</ele>
        <time>2019-10-06T15:22:31Z</time>
      </trkpt>
      <trkpt lat="50.39893" lon="1.56857">
        <ele>2.5</ele>
        <time>2019-10-06T15:22:36Z</time>
      </trkpt>
    </trkseg>
  </trk>
</gpx>